NCAR-RAP Real-Time Weather Data

Output produced by METARs form (30 April 2017  15:07 UTC)
found at http://weather.rap.ucar.edu/surface/
 
Conditions at: KZPH observed 30 April 2017  15:15 UTC
Temperature: 28.3°C (83°F)
Dewpoint: 20.2°C (68°F) [RH = 62%]
Pressure (altimeter): 30.12 inches Hg (1020.1 mb)
Winds: from the SE (140 degrees) at 14 MPH (12 knots; 6.2 m/s)
gusting to 18 MPH (16 knots; 8.3 m/s)
Visibility: 10 or more miles (16+ km)
Ceiling: at least 12,000 feet AGL
Clouds: scattered clouds at 3200 feet AGL
scattered clouds at 3800 feet AGL
Present Weather: automated observation with no human augmentation;
there may or may not be significant weather present at this time
KZPH 301515Z AUTO 14012G16KT 10SM SCT032 SCT038 28/20 A3012 RMK AO2 T02830202

Conditions at: KZPH observed 30 April 2017  14:55 UTC
Temperature: 27.5°C (82°F)
Dewpoint: 20.7°C (69°F) [RH = 67%]
Pressure (altimeter): 30.12 inches Hg (1020.1 mb)
Winds: from the ESE (120 degrees) at 13 MPH (11 knots; 5.7 m/s)
gusting to 18 MPH (16 knots; 8.3 m/s)
Visibility: 10 or more miles (16+ km)
Ceiling: at least 12,000 feet AGL
Clouds: sky clear below 12,000 feet AGL
Present Weather: automated observation with no human augmentation;
there may or may not be significant weather present at this time
KZPH 301455Z AUTO 12011G16KT 10SM CLR 28/21 A3012 RMK AO2 T02750207

Conditions at: KZPH observed 30 April 2017  14:35 UTC
Temperature: 26.7°C (80°F)
Dewpoint: 20.5°C (69°F) [RH = 69%]
Pressure (altimeter): 30.11 inches Hg (1019.7 mb)
Winds: from the SE (130 degrees) at 10 MPH (9 knots; 4.7 m/s)
gusting to 22 MPH (19 knots; 9.9 m/s)
Visibility: 10 or more miles (16+ km)
Ceiling: at least 12,000 feet AGL
Clouds: scattered clouds at 2400 feet AGL
scattered clouds at 3100 feet AGL
Present Weather: automated observation with no human augmentation;
there may or may not be significant weather present at this time
KZPH 301435Z AUTO 13009G19KT 10SM SCT024 SCT031 27/21 A3011 RMK AO2 T02670205

Conditions at: KZPH observed 30 April 2017  14:15 UTC
Temperature: 26.1°C (79°F)
Dewpoint: 20.5°C (69°F) [RH = 71%]
Pressure (altimeter): 30.11 inches Hg (1019.7 mb)
Winds: from the SE (130 degrees) at 13 MPH (11 knots; 5.7 m/s)
gusting to 22 MPH (19 knots; 9.9 m/s)
Visibility: 10 or more miles (16+ km)
Ceiling: at least 12,000 feet AGL
Clouds: scattered clouds at 2400 feet AGL
scattered clouds at 3100 feet AGL
Present Weather: automated observation with no human augmentation;
there may or may not be significant weather present at this time
KZPH 301415Z AUTO 13011G19KT 10SM SCT024 SCT031 26/21 A3011 RMK AO2 T02610205

Conditions at: KZPH observed 30 April 2017  13:55 UTC
Temperature: 26.6°C (80°F)
Dewpoint: 20.6°C (69°F) [RH = 70%]
Pressure (altimeter): 30.11 inches Hg (1019.7 mb)
Winds: from the SSE (150 degrees) at 18 MPH (16 knots; 8.3 m/s)
gusting to 25 MPH (22 knots; 11.4 m/s)
Visibility: 10 or more miles (16+ km)
Ceiling: at least 12,000 feet AGL
Clouds: sky clear below 12,000 feet AGL
Present Weather: automated observation with no human augmentation;
there may or may not be significant weather present at this time
KZPH 301355Z AUTO 15016G22KT 10SM CLR 27/21 A3011 RMK AO2 T02660206

Conditions at: KZPH observed 30 April 2017  13:35 UTC
Temperature: 25.1°C (77°F)
Dewpoint: 21.0°C (70°F) [RH = 78%]
Pressure (altimeter): 30.11 inches Hg (1019.7 mb)
Winds: from the SE (140 degrees) at 9 MPH (8 knots; 4.2 m/s)
Visibility: 10 or more miles (16+ km)
Ceiling: at least 12,000 feet AGL
Clouds: sky clear below 12,000 feet AGL
Present Weather: automated observation with no human augmentation;
there may or may not be significant weather present at this time
KZPH 301335Z AUTO 14008KT 10SM CLR 25/21 A3011 RMK AO2 T02510210

Conditions at: KZPH observed 30 April 2017  13:15 UTC
Temperature: 24.3°C (76°F)
Dewpoint: 20.8°C (69°F) [RH = 81%]
Pressure (altimeter): 30.12 inches Hg (1020.1 mb)
Winds: from the SE (140 degrees) at 12 MPH (10 knots; 5.2 m/s)
Visibility: 10 or more miles (16+ km)
Ceiling: at least 12,000 feet AGL
Clouds: sky clear below 12,000 feet AGL
Present Weather: automated observation with no human augmentation;
there may or may not be significant weather present at this time
KZPH 301315Z AUTO 14010KT 10SM CLR 24/21 A3012 RMK AO2 T02430208

Conditions at: KZPH observed 30 April 2017  12:55 UTC
Temperature: 23.9°C (75°F)
Dewpoint: 20.8°C (69°F) [RH = 83%]
Pressure (altimeter): 30.12 inches Hg (1020.1 mb)
Winds: from the SE (130 degrees) at 13 MPH (11 knots; 5.7 m/s)
gusting to 16 MPH (14 knots; 7.3 m/s)
Visibility: 10 or more miles (16+ km)
Ceiling: at least 12,000 feet AGL
Clouds: sky clear below 12,000 feet AGL
Present Weather: automated observation with no human augmentation;
there may or may not be significant weather present at this time
KZPH 301255Z AUTO 13011G14KT 10SM CLR 24/21 A3012 RMK AO2 T02390208

Conditions at: KZPH observed 30 April 2017  12:35 UTC
Temperature: 23.6°C (74°F)
Dewpoint: 20.9°C (70°F) [RH = 85%]
Pressure (altimeter): 30.13 inches Hg (1020.4 mb)
Winds: from the SE (130 degrees) at 10 MPH (9 knots; 4.7 m/s)
Visibility: 10 or more miles (16+ km)
Ceiling: at least 12,000 feet AGL
Clouds: sky clear below 12,000 feet AGL
Present Weather: automated observation with no human augmentation;
there may or may not be significant weather present at this time
KZPH 301235Z AUTO 13009KT 10SM CLR 24/21 A3013 RMK AO2 T02360209

Conditions at: KZPH observed 30 April 2017  12:15 UTC
Temperature: 23.0°C (73°F)
Dewpoint: 21.0°C (70°F) [RH = 89%]
Pressure (altimeter): 30.13 inches Hg (1020.4 mb)
Winds: from the SE (130 degrees) at 7 MPH (6 knots; 3.1 m/s)
Visibility: 10 or more miles (16+ km)
Ceiling: at least 12,000 feet AGL
Clouds: sky clear below 12,000 feet AGL
Present Weather: automated observation with no human augmentation;
there may or may not be significant weather present at this time
KZPH 301215Z AUTO 13006KT 10SM CLR 23/21 A3013 RMK AO2 T02300210

Conditions at: KZPH observed 30 April 2017  11:55 UTC
Temperature: 22.6°C (73°F)
Dewpoint: 21.0°C (70°F) [RH = 91%]
Pressure (altimeter): 30.13 inches Hg (1020.4 mb)
Winds: from the ESE (120 degrees) at 6 MPH (5 knots; 2.6 m/s)
Visibility: 10 or more miles (16+ km)
Ceiling: at least 12,000 feet AGL
Clouds: sky clear below 12,000 feet AGL
Present Weather: automated observation with no human augmentation;
there may or may not be significant weather present at this time
KZPH 301155Z AUTO 12005KT 10SM CLR 23/21 A3013 RMK AO2 T02260210 10236 20218

Conditions at: KZPH observed 30 April 2017  11:35 UTC
Temperature: 22.1°C (72°F)
Dewpoint: 20.7°C (69°F) [RH = 92%]
Pressure (altimeter): 30.13 inches Hg (1020.4 mb)
Winds: from the ESE (110 degrees) at 3 MPH (3 knots; 1.6 m/s)
Visibility: 10 or more miles (16+ km)
Ceiling: at least 12,000 feet AGL
Clouds: sky clear below 12,000 feet AGL
Present Weather: automated observation with no human augmentation;
there may or may not be significant weather present at this time
KZPH 301135Z AUTO 11003KT 10SM CLR 22/21 A3013 RMK AO2 T02210207

Conditions at: KZPH observed 30 April 2017  11:15 UTC
Temperature: 22.0°C (72°F)
Dewpoint: 20.6°C (69°F) [RH = 92%]
Pressure (altimeter): 30.12 inches Hg (1020.1 mb)
Winds: from the E (100 degrees) at 3 MPH (3 knots; 1.6 m/s)
Visibility: 10 or more miles (16+ km)
Ceiling: at least 12,000 feet AGL
Clouds: sky clear below 12,000 feet AGL
Present Weather: automated observation with no human augmentation;
there may or may not be significant weather present at this time
KZPH 301115Z AUTO 10003KT 10SM CLR 22/21 A3012 RMK AO2 T02200206

Conditions at: KZPH observed 30 April 2017  10:55 UTC
Temperature: 22.0°C (72°F)
Dewpoint: 20.6°C (69°F) [RH = 92%]
Pressure (altimeter): 30.12 inches Hg (1020.1 mb)
Winds: from the E (100 degrees) at 3 MPH (3 knots; 1.6 m/s)
Visibility: 10 or more miles (16+ km)
Ceiling: at least 12,000 feet AGL
Clouds: sky clear below 12,000 feet AGL
Present Weather: automated observation with no human augmentation;
there may or may not be significant weather present at this time
KZPH 301055Z AUTO 10003KT 10SM CLR 22/21 A3012 RMK AO2 T02200206

Conditions at: KZPH observed 30 April 2017  10:35 UTC
Temperature: 22.0°C (72°F)
Dewpoint: 20.6°C (69°F) [RH = 92%]
Pressure (altimeter): 30.11 inches Hg (1019.7 mb)
Winds: from the ESE (120 degrees) at 3 MPH (3 knots; 1.6 m/s)
Visibility: 10 or more miles (16+ km)
Ceiling: at least 12,000 feet AGL
Clouds: sky clear below 12,000 feet AGL
Present Weather: automated observation with no human augmentation;
there may or may not be significant weather present at this time
KZPH 301035Z AUTO 12003KT 10SM CLR 22/21 A3011 RMK AO2 T02200206

Conditions at: KZPH observed 30 April 2017  10:15 UTC
Temperature: 21.8°C (71°F)
Dewpoint: 20.6°C (69°F) [RH = 93%]
Pressure (altimeter): 30.11 inches Hg (1019.7 mb)
Winds: from the ESE (110 degrees) at 5 MPH (4 knots; 2.1 m/s)
Visibility: 10 or more miles (16+ km)
Ceiling: at least 12,000 feet AGL
Clouds: sky clear below 12,000 feet AGL
Present Weather: automated observation with no human augmentation;
there may or may not be significant weather present at this time
KZPH 301015Z AUTO 11004KT 10SM CLR 22/21 A3011 RMK AO2 T02180206

Conditions at: KZPH observed 30 April 2017  09:55 UTC
Temperature: 21.9°C (71°F)
Dewpoint: 20.5°C (69°F) [RH = 92%]
Pressure (altimeter): 30.11 inches Hg (1019.7 mb)
Winds: from the E (100 degrees) at 5 MPH (4 knots; 2.1 m/s)
Visibility: 10 or more miles (16+ km)
Ceiling: at least 12,000 feet AGL
Clouds: sky clear below 12,000 feet AGL
Present Weather: automated observation with no human augmentation;
there may or may not be significant weather present at this time
KZPH 300955Z AUTO 10004KT 10SM CLR 22/21 A3011 RMK AO2 T02190205

Conditions at: KZPH observed 30 April 2017  09:35 UTC
Temperature: 22.2°C (72°F)
Dewpoint: 20.5°C (69°F) [RH = 90%]
Pressure (altimeter): 30.11 inches Hg (1019.7 mb)
Winds: from the E (100 degrees) at 3 MPH (3 knots; 1.6 m/s)
Visibility: 10 or more miles (16+ km)
Ceiling: at least 12,000 feet AGL
Clouds: sky clear below 12,000 feet AGL
Present Weather: automated observation with no human augmentation;
there may or may not be significant weather present at this time
KZPH 300935Z AUTO 10003KT 10SM CLR 22/21 A3011 RMK AO2 T02220205

Conditions at: KZPH observed 30 April 2017  09:15 UTC
Temperature: 22.3°C (72°F)
Dewpoint: 20.6°C (69°F) [RH = 90%]
Pressure (altimeter): 30.10 inches Hg (1019.4 mb)
Winds: from the ESE (110 degrees) at 5 MPH (4 knots; 2.1 m/s)
Visibility: 10 or more miles (16+ km)
Ceiling: at least 12,000 feet AGL
Clouds: sky clear below 12,000 feet AGL
Present Weather: automated observation with no human augmentation;
there may or may not be significant weather present at this time
KZPH 300915Z AUTO 11004KT 10SM CLR 22/21 A3010 RMK AO2 T02230206

Conditions at: KZPH observed 30 April 2017  08:55 UTC
Temperature: 22.5°C (72°F)
Dewpoint: 20.6°C (69°F) [RH = 89%]
Pressure (altimeter): 30.10 inches Hg (1019.4 mb)
Winds: from the ESE (110 degrees) at 5 MPH (4 knots; 2.1 m/s)
Visibility: 10 or more miles (16+ km)
Ceiling: at least 12,000 feet AGL
Clouds: sky clear below 12,000 feet AGL
Present Weather: automated observation with no human augmentation;
there may or may not be significant weather present at this time
KZPH 300855Z AUTO 11004KT 10SM CLR 23/21 A3010 RMK AO2 T02250206

Conditions at: KZPH observed 30 April 2017  08:35 UTC
Temperature: 22.6°C (73°F)
Dewpoint: 20.6°C (69°F) [RH = 88%]
Pressure (altimeter): 30.11 inches Hg (1019.7 mb)
Winds: calm
Visibility: 10 or more miles (16+ km)
Ceiling: at least 12,000 feet AGL
Clouds: sky clear below 12,000 feet AGL
Present Weather: automated observation with no human augmentation;
there may or may not be significant weather present at this time
KZPH 300835Z AUTO 00000KT 10SM CLR 23/21 A3011 RMK AO2 T02260206

Conditions at: KZPH observed 30 April 2017  08:15 UTC
Temperature: 22.8°C (73°F)
Dewpoint: 20.6°C (69°F) [RH = 87%]
Pressure (altimeter): 30.11 inches Hg (1019.7 mb)
Winds: from the SE (130 degrees) at 3 MPH (3 knots; 1.6 m/s)
Visibility: 10 or more miles (16+ km)
Ceiling: at least 12,000 feet AGL
Clouds: sky clear below 12,000 feet AGL
Present Weather: automated observation with no human augmentation;
there may or may not be significant weather present at this time
KZPH 300815Z AUTO 13003KT 10SM CLR 23/21 A3011 RMK AO2 T02280206

Conditions at: KZPH observed 30 April 2017  07:55 UTC
Temperature: 23.0°C (73°F)
Dewpoint: 20.6°C (69°F) [RH = 86%]
Pressure (altimeter): 30.10 inches Hg (1019.4 mb)
Winds: from the ESE (120 degrees) at 6 MPH (5 knots; 2.6 m/s)
Visibility: 10 or more miles (16+ km)
Ceiling: at least 12,000 feet AGL
Clouds: sky clear below 12,000 feet AGL
Present Weather: automated observation with no human augmentation;
there may or may not be significant weather present at this time
KZPH 300755Z AUTO 12005KT 10SM CLR 23/21 A3010 RMK AO2 T02300206

Conditions at: KZPH observed 30 April 2017  07:35 UTC
Temperature: 23.1°C (74°F)
Dewpoint: 20.6°C (69°F) [RH = 86%]
Pressure (altimeter): 30.10 inches Hg (1019.4 mb)
Winds: from the SE (130 degrees) at 5 MPH (4 knots; 2.1 m/s)
Visibility: 10 or more miles (16+ km)
Ceiling: at least 12,000 feet AGL
Clouds: sky clear below 12,000 feet AGL
Present Weather: automated observation with no human augmentation;
there may or may not be significant weather present at this time
KZPH 300735Z AUTO 13004KT 10SM CLR 23/21 A3010 RMK AO2 T02310206

Conditions at: KZPH observed 30 April 2017  07:15 UTC
Temperature: 23.2°C (74°F)
Dewpoint: 20.6°C (69°F) [RH = 85%]
Pressure (altimeter): 30.10 inches Hg (1019.4 mb)
Winds: from the SE (130 degrees) at 5 MPH (4 knots; 2.1 m/s)
Visibility: 10 or more miles (16+ km)
Ceiling: at least 12,000 feet AGL
Clouds: sky clear below 12,000 feet AGL
Present Weather: automated observation with no human augmentation;
there may or may not be significant weather present at this time
KZPH 300715Z AUTO 13004KT 10SM CLR 23/21 A3010 RMK AO2 T02320206

Conditions at: KZPH observed 30 April 2017  06:55 UTC
Temperature: 23.3°C (74°F)
Dewpoint: 20.6°C (69°F) [RH = 85%]
Pressure (altimeter): 30.10 inches Hg (1019.4 mb)
Winds: from the SE (130 degrees) at 9 MPH (8 knots; 4.2 m/s)
Visibility: 10 or more miles (16+ km)
Ceiling: at least 12,000 feet AGL
Clouds: sky clear below 12,000 feet AGL
Present Weather: automated observation with no human augmentation;
there may or may not be significant weather present at this time
KZPH 300655Z AUTO 13008KT 10SM CLR 23/21 A3010 RMK AO2 T02330206

Conditions at: KZPH observed 30 April 2017  06:35 UTC
Temperature: 23.5°C (74°F)
Dewpoint: 20.6°C (69°F) [RH = 84%]
Pressure (altimeter): 30.10 inches Hg (1019.4 mb)
Winds: from the SE (130 degrees) at 8 MPH (7 knots; 3.6 m/s)
Visibility: 10 or more miles (16+ km)
Ceiling: at least 12,000 feet AGL
Clouds: sky clear below 12,000 feet AGL
Present Weather: automated observation with no human augmentation;
there may or may not be significant weather present at this time
KZPH 300635Z AUTO 13007KT 10SM CLR 24/21 A3010 RMK AO2 T02350206

Conditions at: KZPH observed 30 April 2017  06:15 UTC
Temperature: 23.5°C (74°F)
Dewpoint: 20.6°C (69°F) [RH = 84%]
Pressure (altimeter): 30.10 inches Hg (1019.4 mb)
Winds: from the SE (130 degrees) at 9 MPH (8 knots; 4.2 m/s)
Visibility: 10 or more miles (16+ km)
Ceiling: at least 12,000 feet AGL
Clouds: sky clear below 12,000 feet AGL
Present Weather: automated observation with no human augmentation;
there may or may not be significant weather present at this time
KZPH 300615Z AUTO 13008KT 10SM CLR 24/21 A3010 RMK AO2 T02350206

Conditions at: KZPH observed 30 April 2017  05:55 UTC
Temperature: 23.2°C (74°F)
Dewpoint: 20.5°C (69°F) [RH = 85%]
Pressure (altimeter): 30.11 inches Hg (1019.7 mb)
Winds: from the ESE (110 degrees) at 9 MPH (8 knots; 4.2 m/s)
Visibility: 10 or more miles (16+ km)
Ceiling: at least 12,000 feet AGL
Clouds: sky clear below 12,000 feet AGL
Present Weather: automated observation with no human augmentation;
there may or may not be significant weather present at this time
KZPH 300555Z AUTO 11008KT 10SM CLR 23/21 A3011 RMK AO2 T02320205 10300 20230 403570215

Conditions at: KZPH observed 30 April 2017  05:35 UTC
Temperature: 23.1°C (74°F)
Dewpoint: 20.5°C (69°F) [RH = 85%]
Pressure (altimeter): 30.11 inches Hg (1019.7 mb)
Winds: from the ESE (120 degrees) at 6 MPH (5 knots; 2.6 m/s)
Visibility: 10 or more miles (16+ km)
Ceiling: at least 12,000 feet AGL
Clouds: sky clear below 12,000 feet AGL
Present Weather: automated observation with no human augmentation;
there may or may not be significant weather present at this time
KZPH 300535Z AUTO 12005KT 10SM CLR 23/21 A3011 RMK AO2 T02310205

Conditions at: KZPH observed 30 April 2017  05:15 UTC
Temperature: 23.1°C (74°F)
Dewpoint: 20.5°C (69°F) [RH = 85%]
Pressure (altimeter): 30.12 inches Hg (1020.1 mb)
Winds: from the ESE (110 degrees) at 6 MPH (5 knots; 2.6 m/s)
Visibility: 10 or more miles (16+ km)
Ceiling: at least 12,000 feet AGL
Clouds: sky clear below 12,000 feet AGL
Present Weather: automated observation with no human augmentation;
there may or may not be significant weather present at this time
KZPH 300515Z AUTO 11005KT 10SM CLR 23/21 A3012 RMK AO2 T02310205

Conditions at: KZPH observed 30 April 2017  04:55 UTC
Temperature: 23.3°C (74°F)
Dewpoint: 20.2°C (68°F) [RH = 83%]
Pressure (altimeter): 30.12 inches Hg (1020.1 mb)
Winds: from the ESE (110 degrees) at 7 MPH (6 knots; 3.1 m/s)
Visibility: 10 or more miles (16+ km)
Ceiling: at least 12,000 feet AGL
Clouds: sky clear below 12,000 feet AGL
Present Weather: automated observation with no human augmentation;
there may or may not be significant weather present at this time
KZPH 300455Z AUTO 11006KT 10SM CLR 23/20 A3012 RMK AO2 T02330202

Conditions at: KZPH observed 30 April 2017  04:35 UTC
Temperature: 23.5°C (74°F)
Dewpoint: 20.0°C (68°F) [RH = 81%]
Pressure (altimeter): 30.13 inches Hg (1020.4 mb)
Winds: from the ESE (120 degrees) at 8 MPH (7 knots; 3.6 m/s)
Visibility: 10 or more miles (16+ km)
Ceiling: at least 12,000 feet AGL
Clouds: sky clear below 12,000 feet AGL
Present Weather: automated observation with no human augmentation;
there may or may not be significant weather present at this time
KZPH 300435Z AUTO 12007KT 10SM CLR 24/20 A3013 RMK AO2 T02350200

Conditions at: KZPH observed 30 April 2017  04:15 UTC
Temperature: 23.8°C (75°F)
Dewpoint: 19.7°C (67°F) [RH = 78%]
Pressure (altimeter): 30.12 inches Hg (1020.1 mb)
Winds: from the ESE (110 degrees) at 9 MPH (8 knots; 4.2 m/s)
Visibility: 10 or more miles (16+ km)
Ceiling: at least 12,000 feet AGL
Clouds: sky clear below 12,000 feet AGL
Present Weather: automated observation with no human augmentation;
there may or may not be significant weather present at this time
KZPH 300415Z AUTO 11008KT 10SM CLR 24/20 A3012 RMK AO2 T02380197

Conditions at: KZPH observed 30 April 2017  03:55 UTC
Temperature: 24.1°C (75°F)
Dewpoint: 19.3°C (67°F) [RH = 75%]
Pressure (altimeter): 30.12 inches Hg (1020.1 mb)
Winds: from the ESE (110 degrees) at 8 MPH (7 knots; 3.6 m/s)
Visibility: 10 or more miles (16+ km)
Ceiling: at least 12,000 feet AGL
Clouds: sky clear below 12,000 feet AGL
Present Weather: automated observation with no human augmentation;
there may or may not be significant weather present at this time
KZPH 300355Z AUTO 11007KT 10SM CLR 24/19 A3012 RMK AO2 T02410193

Conditions at: KZPH observed 30 April 2017  03:35 UTC
Temperature: 24.4°C (76°F)
Dewpoint: 19.0°C (66°F) [RH = 72%]
Pressure (altimeter): 30.12 inches Hg (1020.1 mb)
Winds: from the E (100 degrees) at 7 MPH (6 knots; 3.1 m/s)
Visibility: 10 or more miles (16+ km)
Ceiling: at least 12,000 feet AGL
Clouds: sky clear below 12,000 feet AGL
Present Weather: automated observation with no human augmentation;
there may or may not be significant weather present at this time
KZPH 300335Z AUTO 10006KT 10SM CLR 24/19 A3012 RMK AO2 T02440190

Conditions at: KZPH observed 30 April 2017  03:15 UTC
Temperature: 25.1°C (77°F)
Dewpoint: 19.0°C (66°F) [RH = 69%]
Pressure (altimeter): 30.12 inches Hg (1020.1 mb)
Winds: from the ESE (120 degrees) at 12 MPH (10 knots; 5.2 m/s)
gusting to 16 MPH (14 knots; 7.3 m/s)
Visibility: 10 or more miles (16+ km)
Ceiling: at least 12,000 feet AGL
Clouds: sky clear below 12,000 feet AGL
Present Weather: automated observation with no human augmentation;
there may or may not be significant weather present at this time
KZPH 300315Z AUTO 12010G14KT 10SM CLR 25/19 A3012 RMK AO2 T02510190

Conditions at: KZPH observed 30 April 2017  02:55 UTC
Temperature: 25.5°C (78°F)
Dewpoint: 18.6°C (65°F) [RH = 66%]
Pressure (altimeter): 30.12 inches Hg (1020.1 mb)
Winds: from the ESE (120 degrees) at 13 MPH (11 knots; 5.7 m/s)
Visibility: 10 or more miles (16+ km)
Ceiling: at least 12,000 feet AGL
Clouds: sky clear below 12,000 feet AGL
Present Weather: automated observation with no human augmentation;
there may or may not be significant weather present at this time
KZPH 300255Z AUTO 12011KT 10SM CLR 26/19 A3012 RMK AO2 T02550186

Conditions at: KZPH observed 30 April 2017  02:35 UTC
Temperature: 25.8°C (78°F)
Dewpoint: 18.3°C (65°F) [RH = 63%]
Pressure (altimeter): 30.12 inches Hg (1020.1 mb)
Winds: from the ESE (120 degrees) at 12 MPH (10 knots; 5.2 m/s)
Visibility: 10 or more miles (16+ km)
Ceiling: at least 12,000 feet AGL
Clouds: sky clear below 12,000 feet AGL
Present Weather: automated observation with no human augmentation;
there may or may not be significant weather present at this time
KZPH 300235Z AUTO 12010KT 10SM CLR 26/18 A3012 RMK AO2 T02580183

Conditions at: KZPH observed 30 April 2017  02:15 UTC
Temperature: 26.2°C (79°F)
Dewpoint: 18.0°C (64°F) [RH = 61%]
Pressure (altimeter): 30.11 inches Hg (1019.7 mb)
Winds: from the E (100 degrees) at 9 MPH (8 knots; 4.2 m/s)
Visibility: 10 or more miles (16+ km)
Ceiling: at least 12,000 feet AGL
Clouds: sky clear below 12,000 feet AGL
Present Weather: automated observation with no human augmentation;
there may or may not be significant weather present at this time
KZPH 300215Z AUTO 10008KT 10SM CLR 26/18 A3011 RMK AO2 T02620180

Conditions at: KZPH observed 30 April 2017  01:55 UTC
Temperature: 26.5°C (80°F)
Dewpoint: 18.0°C (64°F) [RH = 60%]
Pressure (altimeter): 30.11 inches Hg (1019.7 mb)
Winds: from the ESE (110 degrees) at 13 MPH (11 knots; 5.7 m/s)
gusting to 18 MPH (16 knots; 8.3 m/s)
Visibility: 10 or more miles (16+ km)
Ceiling: at least 12,000 feet AGL
Clouds: sky clear below 12,000 feet AGL
Present Weather: automated observation with no human augmentation;
there may or may not be significant weather present at this time
KZPH 300155Z AUTO 11011G16KT 10SM CLR 27/18 A3011 RMK AO2 T02650180

Conditions at: KZPH observed 30 April 2017  01:35 UTC
Temperature: 27.0°C (81°F)
Dewpoint: 18.1°C (65°F) [RH = 58%]
Pressure (altimeter): 30.10 inches Hg (1019.4 mb)
Winds: from the ESE (110 degrees) at 13 MPH (11 knots; 5.7 m/s)
gusting to 17 MPH (15 knots; 7.8 m/s)
Visibility: 10 or more miles (16+ km)
Ceiling: at least 12,000 feet AGL
Clouds: sky clear below 12,000 feet AGL
Present Weather: automated observation with no human augmentation;
there may or may not be significant weather present at this time
KZPH 300135Z AUTO 11011G15KT 10SM CLR 27/18 A3010 RMK AO2 T02700181

Conditions at: KZPH observed 30 April 2017  01:15 UTC
Temperature: 27.5°C (82°F)
Dewpoint: 18.0°C (64°F) [RH = 56%]
Pressure (altimeter): 30.09 inches Hg (1019.0 mb)
Winds: from the ESE (110 degrees) at 7 MPH (6 knots; 3.1 m/s)
Visibility: 10 or more miles (16+ km)
Ceiling: at least 12,000 feet AGL
Clouds: sky clear below 12,000 feet AGL
Present Weather: automated observation with no human augmentation;
there may or may not be significant weather present at this time
KZPH 300115Z AUTO 11006KT 10SM CLR 28/18 A3009 RMK AO2 T02750180

Conditions at: KZPH observed 30 April 2017  00:55 UTC
Temperature: 27.8°C (82°F)
Dewpoint: 17.7°C (64°F) [RH = 54%]
Pressure (altimeter): 30.09 inches Hg (1019.0 mb)
Winds: from the E (100 degrees) at 9 MPH (8 knots; 4.2 m/s)
Visibility: 10 or more miles (16+ km)
Ceiling: at least 12,000 feet AGL
Clouds: sky clear below 12,000 feet AGL
Present Weather: automated observation with no human augmentation;
there may or may not be significant weather present at this time
KZPH 300055Z AUTO 10008KT 10SM CLR 28/18 A3009 RMK AO2 T02780177

Conditions at: KZPH observed 30 April 2017  00:35 UTC
Temperature: 28.5°C (83°F)
Dewpoint: 17.5°C (64°F) [RH = 51%]
Pressure (altimeter): 30.08 inches Hg (1018.7 mb)
Winds: from the E (100 degrees) at 8 MPH (7 knots; 3.6 m/s)
Visibility: 10 or more miles (16+ km)
Ceiling: at least 12,000 feet AGL
Clouds: sky clear below 12,000 feet AGL
Present Weather: automated observation with no human augmentation;
there may or may not be significant weather present at this time
KZPH 300035Z AUTO 10007KT 10SM CLR 29/18 A3008 RMK AO2 T02850175

Conditions at: KZPH observed 30 April 2017  00:15 UTC
Temperature: 29.1°C (84°F)
Dewpoint: 16.8°C (62°F) [RH = 47%]
Pressure (altimeter): 30.08 inches Hg (1018.7 mb)
Winds: from the ESE (110 degrees) at 7 MPH (6 knots; 3.1 m/s)
Visibility: 10 or more miles (16+ km)
Ceiling: at least 12,000 feet AGL
Clouds: sky clear below 12,000 feet AGL
Present Weather: automated observation with no human augmentation;
there may or may not be significant weather present at this time
KZPH 300015Z AUTO 11006KT 10SM CLR 29/17 A3008 RMK AO2 T02910168

Conditions at: KZPH observed 29 April 2017  23:55 UTC
Temperature: 30.1°C (86°F)
Dewpoint: 16.0°C (61°F) [RH = 43%]
Pressure (altimeter): 30.07 inches Hg (1018.4 mb)
Winds: from the E (100 degrees) at 9 MPH (8 knots; 4.2 m/s)
Visibility: 10 or more miles (16+ km)
Ceiling: at least 12,000 feet AGL
Clouds: sky clear below 12,000 feet AGL
Present Weather: automated observation with no human augmentation;
there may or may not be significant weather present at this time
KZPH 292355Z AUTO 10008KT 10SM CLR 30/16 A3007 RMK AO2 T03010160 10357 20301

Conditions at: KZPH observed 29 April 2017  23:35 UTC
Temperature: 31.0°C (88°F)
Dewpoint: 15.8°C (60°F) [RH = 40%]
Pressure (altimeter): 30.07 inches Hg (1018.4 mb)
Winds: from the ESE (110 degrees) at 9 MPH (8 knots; 4.2 m/s)
Visibility: 10 or more miles (16+ km)
Ceiling: at least 12,000 feet AGL
Clouds: sky clear below 12,000 feet AGL
Present Weather: automated observation with no human augmentation;
there may or may not be significant weather present at this time
KZPH 292335Z AUTO 11008KT 10SM CLR 31/16 A3007 RMK AO2 T03100158

Conditions at: KZPH observed 29 April 2017  23:15 UTC
Temperature: 31.4°C (89°F)
Dewpoint: 16.1°C (61°F) [RH = 40%]
Pressure (altimeter): 30.07 inches Hg (1018.4 mb)
Winds: from the ESE (110 degrees) at 12 MPH (10 knots; 5.2 m/s)
Visibility: 10 or more miles (16+ km)
Ceiling: at least 12,000 feet AGL
Clouds: sky clear below 12,000 feet AGL
Present Weather: automated observation with no human augmentation;
there may or may not be significant weather present at this time
KZPH 292315Z AUTO 11010KT 10SM CLR 31/16 A3007 RMK AO2 T03140161

Conditions at: KZPH observed 29 April 2017  22:55 UTC
Temperature: 32.3°C (90°F)
Dewpoint: 16.0°C (61°F) [RH = 38%]
Pressure (altimeter): 30.06 inches Hg (1018.0 mb)
Winds: from the ESE (110 degrees) at 15 MPH (13 knots; 6.8 m/s)
gusting to 21 MPH (18 knots; 9.4 m/s)
Visibility: 10 or more miles (16+ km)
Ceiling: at least 12,000 feet AGL
Clouds: sky clear below 12,000 feet AGL
Present Weather: automated observation with no human augmentation;
there may or may not be significant weather present at this time
KZPH 292255Z AUTO 11013G18KT 10SM CLR 32/16 A3006 RMK AO2 T03230160

Conditions at: KZPH observed 29 April 2017  22:35 UTC
Temperature: 33.1°C (92°F)
Dewpoint: 15.7°C (60°F) [RH = 35%]
Pressure (altimeter): 30.06 inches Hg (1018.0 mb)
Winds: from the E (100 degrees) at 15 MPH (13 knots; 6.8 m/s)
gusting to 20 MPH (17 knots; 8.8 m/s)
Visibility: 10 or more miles (16+ km)
Ceiling: at least 12,000 feet AGL
Clouds: sky clear below 12,000 feet AGL
Present Weather: automated observation with no human augmentation;
there may or may not be significant weather present at this time
KZPH 292235Z AUTO 10013G17KT 10SM CLR 33/16 A3006 RMK AO2 T03310157

Conditions at: KZPH observed 29 April 2017  22:15 UTC
Temperature: 33.2°C (92°F)
Dewpoint: 16.1°C (61°F) [RH = 36%]
Pressure (altimeter): 30.06 inches Hg (1018.0 mb)
Winds: from the E (90 degrees) at 14 MPH (12 knots; 6.2 m/s)
gusting to 20 MPH (17 knots; 8.8 m/s)
Visibility: 10 or more miles (16+ km)
Ceiling: at least 12,000 feet AGL
Clouds: sky clear below 12,000 feet AGL
Present Weather: automated observation with no human augmentation;
there may or may not be significant weather present at this time
KZPH 292215Z AUTO 09012G17KT 10SM CLR 33/16 A3006 RMK AO2 T03320161

Conditions at: KZPH observed 29 April 2017  21:55 UTC
Temperature: 34.0°C (93°F)
Dewpoint: 16.1°C (61°F) [RH = 34%]
Pressure (altimeter): 30.06 inches Hg (1018.0 mb)
Winds: from the SE (130 degrees) at 12 MPH (10 knots; 5.2 m/s)
gusting to 20 MPH (17 knots; 8.8 m/s)
Visibility: 10 or more miles (16+ km)
Ceiling: at least 12,000 feet AGL
Clouds: scattered clouds at 11000 feet AGL
Present Weather: automated observation with no human augmentation;
there may or may not be significant weather present at this time
KZPH 292155Z AUTO 13010G17KT 10SM SCT110 34/16 A3006 RMK AO2 T03400161

Conditions at: KZPH observed 29 April 2017  21:35 UTC
Temperature: 34.0°C (93°F)
Dewpoint: 16.5°C (62°F) [RH = 35%]
Pressure (altimeter): 30.06 inches Hg (1018.0 mb)
Winds: from the E (100 degrees) at 10 MPH (9 knots; 4.7 m/s)
Visibility: 10 or more miles (16+ km)
Ceiling: 9500 feet AGL
Clouds: scattered clouds at 7000 feet AGL
broken clouds at 9500 feet AGL
broken clouds at 12000 feet AGL
Present Weather: automated observation with no human augmentation;
there may or may not be significant weather present at this time
KZPH 292135Z AUTO 10009KT 10SM SCT070 BKN095 BKN120 34/17 A3006 RMK AO2 T03400165

Conditions at: KZPH observed 29 April 2017  21:15 UTC
Temperature: 33.3°C (92°F)
Dewpoint: 16.4°C (62°F) [RH = 36%]
Pressure (altimeter): 30.06 inches Hg (1018.0 mb)
Winds: from the ESE (120 degrees) at 10 MPH (9 knots; 4.7 m/s)
gusting to 21 MPH (18 knots; 9.4 m/s)
Visibility: 10 or more miles (16+ km)
Ceiling: at least 12,000 feet AGL
Clouds: scattered clouds at 7000 feet AGL
scattered clouds at 9500 feet AGL
Present Weather: automated observation with no human augmentation;
there may or may not be significant weather present at this time
KZPH 292115Z AUTO 12009G18KT 10SM SCT070 SCT095 33/16 A3006 RMK AO2 T03330164

Conditions at: KZPH observed 29 April 2017  20:55 UTC
Temperature: 34.8°C (95°F)
Dewpoint: 16.6°C (62°F) [RH = 34%]
Pressure (altimeter): 30.06 inches Hg (1018.0 mb)
Winds: from the ESE (120 degrees) at 13 MPH (11 knots; 5.7 m/s)
gusting to 17 MPH (15 knots; 7.8 m/s)
Visibility: 10 or more miles (16+ km)
Ceiling: at least 12,000 feet AGL
Clouds: scattered clouds at 7000 feet AGL
scattered clouds at 10000 feet AGL
Present Weather: automated observation with no human augmentation;
there may or may not be significant weather present at this time
KZPH 292055Z AUTO 12011G15KT 10SM SCT070 SCT100 35/17 A3006 RMK AO2 T03480166

Conditions at: KZPH observed 29 April 2017  20:35 UTC
Temperature: 34.3°C (94°F)
Dewpoint: 16.6°C (62°F) [RH = 35%]
Pressure (altimeter): 30.07 inches Hg (1018.4 mb)
Winds: from the ESE (120 degrees) at 14 MPH (12 knots; 6.2 m/s)
gusting to 21 MPH (18 knots; 9.4 m/s)
Visibility: 10 or more miles (16+ km)
Ceiling: at least 12,000 feet AGL
Clouds: scattered clouds at 7000 feet AGL
scattered clouds at 9000 feet AGL
Present Weather: automated observation with no human augmentation;
there may or may not be significant weather present at this time
KZPH 292035Z AUTO 12012G18KT 10SM SCT070 SCT090 34/17 A3007 RMK AO2 T03430166

Conditions at: KZPH observed 29 April 2017  20:15 UTC
Temperature: 34.7°C (94°F)
Dewpoint: 16.3°C (61°F) [RH = 34%]
Pressure (altimeter): 30.07 inches Hg (1018.4 mb)
Winds: from the SSE (150 degrees) at 14 MPH (12 knots; 6.2 m/s)
gusting to 21 MPH (18 knots; 9.4 m/s)
Visibility: 10 or more miles (16+ km)
Ceiling: at least 12,000 feet AGL
Clouds: sky clear below 12,000 feet AGL
Present Weather: automated observation with no human augmentation;
there may or may not be significant weather present at this time
KZPH 292015Z AUTO 15012G18KT 10SM CLR 35/16 A3007 RMK AO2 T03470163

Conditions at: KZPH observed 29 April 2017  19:55 UTC
Temperature: 34.8°C (95°F)
Dewpoint: 16.8°C (62°F) [RH = 34%]
Pressure (altimeter): 30.08 inches Hg (1018.7 mb)
Winds: from the ESE (110 degrees) at 12 MPH (10 knots; 5.2 m/s)
Visibility: 10 or more miles (16+ km)
Ceiling: at least 12,000 feet AGL
Clouds: scattered clouds at 6500 feet AGL
scattered clouds at 9500 feet AGL
Present Weather: automated observation with no human augmentation;
there may or may not be significant weather present at this time
KZPH 291955Z AUTO 11010KT 10SM SCT065 SCT095 35/17 A3008 RMK AO2 T03480168

Conditions at: KZPH observed 29 April 2017  19:35 UTC
Temperature: 35.5°C (96°F)
Dewpoint: 16.9°C (62°F) [RH = 33%]
Pressure (altimeter): 30.08 inches Hg (1018.7 mb)
Winds: from the E (100 degrees) at 14 MPH (12 knots; 6.2 m/s)
gusting to 20 MPH (17 knots; 8.8 m/s)
Visibility: 10 or more miles (16+ km)
Ceiling: at least 12,000 feet AGL
Clouds: scattered clouds at 6500 feet AGL
Present Weather: automated observation with no human augmentation;
there may or may not be significant weather present at this time
KZPH 291935Z AUTO 10012G17KT 10SM SCT065 36/17 A3008 RMK AO2 T03550169

Conditions at: KZPH observed 29 April 2017  19:15 UTC
Temperature: 35.0°C (95°F)
Dewpoint: 16.9°C (62°F) [RH = 34%]
Pressure (altimeter): 30.09 inches Hg (1019.0 mb)
Winds: from the ESE (120 degrees) at 10 MPH (9 knots; 4.7 m/s)
gusting to 17 MPH (15 knots; 7.8 m/s)
Visibility: 10 or more miles (16+ km)
Ceiling: at least 12,000 feet AGL
Clouds: sky clear below 12,000 feet AGL
Present Weather: automated observation with no human augmentation;
there may or may not be significant weather present at this time
KZPH 291915Z AUTO 12009G15KT 10SM CLR 35/17 A3009 RMK AO2 T03500169

Conditions at: KZPH observed 29 April 2017  18:55 UTC
Temperature: 33.3°C (92°F)
Dewpoint: 17.2°C (63°F) [RH = 38%]
Pressure (altimeter): 30.10 inches Hg (1019.4 mb)
Winds: from the SE (140 degrees) at 14 MPH (12 knots; 6.2 m/s)
gusting to 17 MPH (15 knots; 7.8 m/s)
Visibility: 10 or more miles (16+ km)
Ceiling: at least 12,000 feet AGL
Clouds: scattered clouds at 6500 feet AGL
scattered clouds at 8000 feet AGL
scattered clouds at 9000 feet AGL
Present Weather: automated observation with no human augmentation;
there may or may not be significant weather present at this time
KZPH 291855Z AUTO 14012G15KT 090V170 10SM SCT065 SCT080 SCT090 33/17 A3010 RMK AO2 T03330172

Conditions at: KZPH observed 29 April 2017  18:35 UTC
Temperature: 34.8°C (95°F)
Dewpoint: 16.8°C (62°F) [RH = 34%]
Pressure (altimeter): 30.11 inches Hg (1019.7 mb)
Winds: from the SSE (150 degrees) at 15 MPH (13 knots; 6.8 m/s)
gusting to 20 MPH (17 knots; 8.8 m/s)
Visibility: 10 or more miles (16+ km)
Ceiling: at least 12,000 feet AGL
Clouds: scattered clouds at 6500 feet AGL
scattered clouds at 8000 feet AGL
Present Weather: automated observation with no human augmentation;
there may or may not be significant weather present at this time
KZPH 291835Z AUTO 15013G17KT 10SM SCT065 SCT080 35/17 A3011 RMK AO2 T03480168

Conditions at: KZPH observed 29 April 2017  18:15 UTC
Temperature: 34.1°C (93°F)
Dewpoint: 16.8°C (62°F) [RH = 36%]
Pressure (altimeter): 30.12 inches Hg (1020.1 mb)
Winds: from the ESE (120 degrees) at 14 MPH (12 knots; 6.2 m/s)
gusting to 24 MPH (21 knots; 10.9 m/s)
Visibility: 10 or more miles (16+ km)
Ceiling: at least 12,000 feet AGL
Clouds: scattered clouds at 6500 feet AGL
Present Weather: automated observation with no human augmentation;
there may or may not be significant weather present at this time
KZPH 291815Z AUTO 12012G21KT 090V150 10SM SCT065 34/17 A3012 RMK AO2 T03410168

Conditions at: KZPH observed 29 April 2017  17:55 UTC
Temperature: 33.9°C (93°F)
Dewpoint: 16.6°C (62°F) [RH = 36%]
Pressure (altimeter): 30.12 inches Hg (1020.1 mb)
Winds: from the SSE (150 degrees) at 16 MPH (14 knots; 7.3 m/s)
gusting to 24 MPH (21 knots; 10.9 m/s)
Visibility: 10 or more miles (16+ km)
Ceiling: at least 12,000 feet AGL
Clouds: scattered clouds at 5000 feet AGL
Present Weather: automated observation with no human augmentation;
there may or may not be significant weather present at this time
KZPH 291755Z AUTO 15014G21KT 10SM SCT050 34/17 A3012 RMK AO2 T03390166 10339 20226

Conditions at: KZPH observed 29 April 2017  17:35 UTC
Temperature: 32.4°C (90°F)
Dewpoint: 18.1°C (65°F) [RH = 43%]
Pressure (altimeter): 30.13 inches Hg (1020.4 mb)
Winds: from the SE (130 degrees) at 14 MPH (12 knots; 6.2 m/s)
gusting to 21 MPH (18 knots; 9.4 m/s)
Visibility: 10 or more miles (16+ km)
Ceiling: at least 12,000 feet AGL
Clouds: scattered clouds at 5000 feet AGL
Present Weather: automated observation with no human augmentation;
there may or may not be significant weather present at this time
KZPH 291735Z AUTO 13012G18KT 10SM SCT050 32/18 A3013 RMK AO2 T03240181

Conditions at: KZPH observed 29 April 2017  17:15 UTC
Temperature: 33.3°C (92°F)
Dewpoint: 18.1°C (65°F) [RH = 41%]
Pressure (altimeter): 30.13 inches Hg (1020.4 mb)
Winds: from the SE (130 degrees) at 18 MPH (16 knots; 8.3 m/s)
gusting to 24 MPH (21 knots; 10.9 m/s)
Visibility: 10 or more miles (16+ km)
Ceiling: at least 12,000 feet AGL
Clouds: sky clear below 12,000 feet AGL
Present Weather: automated observation with no human augmentation;
there may or may not be significant weather present at this time
KZPH 291715Z AUTO 13016G21KT 10SM CLR 33/18 A3013 RMK AO2 T03330181

Conditions at: KZPH observed 29 April 2017  16:55 UTC
Temperature: 32.6°C (91°F)
Dewpoint: 18.5°C (65°F) [RH = 43%]
Pressure (altimeter): 30.14 inches Hg (1020.7 mb)
Winds: from the ESE (120 degrees) at 15 MPH (13 knots; 6.8 m/s)
gusting to 23 MPH (20 knots; 10.4 m/s)
Visibility: 10 or more miles (16+ km)
Ceiling: at least 12,000 feet AGL
Clouds: scattered clouds at 4400 feet AGL
scattered clouds at 6000 feet AGL
Present Weather: automated observation with no human augmentation;
there may or may not be significant weather present at this time
KZPH 291655Z AUTO 12013G20KT 10SM SCT044 SCT060 33/19 A3014 RMK AO2 T03260185

Conditions at: KZPH observed 29 April 2017  16:35 UTC
Temperature: 31.8°C (89°F)
Dewpoint: 19.4°C (67°F) [RH = 48%]
Pressure (altimeter): 30.15 inches Hg (1021.1 mb)
Winds: from the SE (140 degrees) at 13 MPH (11 knots; 5.7 m/s)
gusting to 18 MPH (16 knots; 8.3 m/s)
Visibility: 10 or more miles (16+ km)
Ceiling: at least 12,000 feet AGL
Clouds: scattered clouds at 4400 feet AGL
scattered clouds at 5000 feet AGL
Present Weather: automated observation with no human augmentation;
there may or may not be significant weather present at this time
KZPH 291635Z AUTO 14011G16KT 10SM SCT044 SCT050 32/19 A3015 RMK AO2 T03180194

Conditions at: KZPH observed 29 April 2017  16:15 UTC
Temperature: 31.7°C (89°F)
Dewpoint: 19.4°C (67°F) [RH = 48%]
Pressure (altimeter): 30.15 inches Hg (1021.1 mb)
Winds: from the ESE (110 degrees) at 14 MPH (12 knots; 6.2 m/s)
gusting to 20 MPH (17 knots; 8.8 m/s)
Visibility: 10 or more miles (16+ km)
Ceiling: at least 12,000 feet AGL
Clouds: scattered clouds at 3900 feet AGL
scattered clouds at 4500 feet AGL
Present Weather: automated observation with no human augmentation;
there may or may not be significant weather present at this time
KZPH 291615Z AUTO 11012G17KT 10SM SCT039 SCT045 32/19 A3015 RMK AO2 T03170194

Conditions at: KZPH observed 29 April 2017  15:55 UTC
Temperature: 30.4°C (87°F)
Dewpoint: 19.6°C (67°F) [RH = 53%]
Pressure (altimeter): 30.15 inches Hg (1021.1 mb)
Winds: from the ESE (120 degrees) at 15 MPH (13 knots; 6.8 m/s)
gusting to 18 MPH (16 knots; 8.3 m/s)
Visibility: 10 or more miles (16+ km)
Ceiling: 4400 feet AGL
Clouds: scattered clouds at 3700 feet AGL
broken clouds at 4400 feet AGL
Present Weather: automated observation with no human augmentation;
there may or may not be significant weather present at this time
KZPH 291555Z AUTO 12013G16KT 10SM SCT037 BKN044 30/20 A3015 RMK AO2 T03040196

Conditions at: KZPH observed 29 April 2017  15:35 UTC
Temperature: 30.5°C (87°F)
Dewpoint: 19.8°C (68°F) [RH = 53%]
Pressure (altimeter): 30.15 inches Hg (1021.1 mb)
Winds: from the SE (130 degrees) at 16 MPH (14 knots; 7.3 m/s)
gusting to 21 MPH (18 knots; 9.4 m/s)
Visibility: 10 or more miles (16+ km)
Ceiling: at least 12,000 feet AGL
Clouds: scattered clouds at 3700 feet AGL
Present Weather: automated observation with no human augmentation;
there may or may not be significant weather present at this time
KZPH 291535Z AUTO 13014G18KT 10SM SCT037 31/20 A3015 RMK AO2 T03050198

Conditions at: KZPH observed 29 April 2017  15:15 UTC
Temperature: 30.4°C (87°F)
Dewpoint: 20.4°C (69°F) [RH = 55%]
Pressure (altimeter): 30.15 inches Hg (1021.1 mb)
Winds: from the SE (130 degrees) at 13 MPH (11 knots; 5.7 m/s)
gusting to 18 MPH (16 knots; 8.3 m/s)
Visibility: 10 or more miles (16+ km)
Ceiling: at least 12,000 feet AGL
Clouds: scattered clouds at 3500 feet AGL
Present Weather: automated observation with no human augmentation;
there may or may not be significant weather present at this time
KZPH 291515Z AUTO 13011G16KT 10SM SCT035 30/20 A3015 RMK AO2 T03040204

Conditions at: KZPH observed 29 April 2017  14:55 UTC
Temperature: 29.5°C (85°F)
Dewpoint: 20.5°C (69°F) [RH = 58%]
Pressure (altimeter): 30.15 inches Hg (1021.1 mb)
Winds: from the SE (140 degrees) at 14 MPH (12 knots; 6.2 m/s)
gusting to 20 MPH (17 knots; 8.8 m/s)
Visibility: 10 or more miles (16+ km)
Ceiling: at least 12,000 feet AGL
Clouds: scattered clouds at 3200 feet AGL
Present Weather: automated observation with no human augmentation;
there may or may not be significant weather present at this time
KZPH 291455Z AUTO 14012G17KT 10SM SCT032 30/21 A3015 RMK AO2 T02950205

Conditions at: KZPH observed 29 April 2017  14:35 UTC
Temperature: 28.0°C (82°F)
Dewpoint: 20.4°C (69°F) [RH = 63%]
Pressure (altimeter): 30.15 inches Hg (1021.1 mb)
Winds: from the SSE (150 degrees) at 16 MPH (14 knots; 7.3 m/s)
gusting to 23 MPH (20 knots; 10.4 m/s)
Visibility: 10 or more miles (16+ km)
Ceiling: at least 12,000 feet AGL
Clouds: scattered clouds at 2600 feet AGL
scattered clouds at 3300 feet AGL
Present Weather: automated observation with no human augmentation;
there may or may not be significant weather present at this time
KZPH 291435Z AUTO 15014G20KT 10SM SCT026 SCT033 28/20 A3015 RMK AO2 T02800204

Conditions at: KZPH observed 29 April 2017  14:15 UTC
Temperature: 28.8°C (84°F)
Dewpoint: 20.9°C (70°F) [RH = 62%]
Pressure (altimeter): 30.15 inches Hg (1021.1 mb)
Winds: from the SE (130 degrees) at 12 MPH (10 knots; 5.2 m/s)
gusting to 22 MPH (19 knots; 9.9 m/s)
Visibility: 10 or more miles (16+ km)
Ceiling: at least 12,000 feet AGL
Clouds: scattered clouds at 2400 feet AGL
scattered clouds at 3300 feet AGL
Present Weather: automated observation with no human augmentation;
there may or may not be significant weather present at this time
KZPH 291415Z AUTO 13010G19KT 100V160 10SM SCT024 SCT033 29/21 A3015 RMK AO2 T02880209

Conditions at: KZPH observed 29 April 2017  13:55 UTC
Temperature: 27.8°C (82°F)
Dewpoint: 21.2°C (70°F) [RH = 67%]
Pressure (altimeter): 30.16 inches Hg (1021.4 mb)
Winds: from the ESE (120 degrees) at 12 MPH (10 knots; 5.2 m/s)
gusting to 20 MPH (17 knots; 8.8 m/s)
Visibility: 10 or more miles (16+ km)
Ceiling: at least 12,000 feet AGL
Clouds: scattered clouds at 2200 feet AGL
scattered clouds at 2900 feet AGL
Present Weather: automated observation with no human augmentation;
there may or may not be significant weather present at this time
KZPH 291355Z AUTO 12010G17KT 10SM SCT022 SCT029 28/21 A3016 RMK AO2 T02780212

Conditions at: KZPH observed 29 April 2017  13:35 UTC
Temperature: 27.6°C (82°F)
Dewpoint: 21.5°C (71°F) [RH = 69%]
Pressure (altimeter): 30.15 inches Hg (1021.1 mb)
Winds: from the SE (130 degrees) at 12 MPH (10 knots; 5.2 m/s)
gusting to 16 MPH (14 knots; 7.3 m/s)
Visibility: 10 or more miles (16+ km)
Ceiling: at least 12,000 feet AGL
Clouds: scattered clouds at 2000 feet AGL
Present Weather: automated observation with no human augmentation;
there may or may not be significant weather present at this time
KZPH 291335Z AUTO 13010G14KT 10SM SCT020 28/22 A3015 RMK AO2 T02760215

Conditions at: KZPH observed 29 April 2017  13:15 UTC
Temperature: 26.3°C (79°F)
Dewpoint: 21.5°C (71°F) [RH = 75%]
Pressure (altimeter): 30.15 inches Hg (1021.1 mb)
Winds: from the SE (140 degrees) at 14 MPH (12 knots; 6.2 m/s)
gusting to 23 MPH (20 knots; 10.4 m/s)
Visibility: 10 or more miles (16+ km)
Ceiling: at least 12,000 feet AGL
Clouds: scattered clouds at 1800 feet AGL
Present Weather: automated observation with no human augmentation;
there may or may not be significant weather present at this time
KZPH 291315Z AUTO 14012G20KT 10SM SCT018 26/22 A3015 RMK AO2 T02630215

Conditions at: KZPH observed 29 April 2017  12:55 UTC
Temperature: 25.4°C (78°F)
Dewpoint: 22.0°C (72°F) [RH = 82%]
Pressure (altimeter): 30.15 inches Hg (1021.1 mb)
Winds: from the SE (130 degrees) at 9 MPH (8 knots; 4.2 m/s)
gusting to 16 MPH (14 knots; 7.3 m/s)
Visibility: 10 or more miles (16+ km)
Ceiling: at least 12,000 feet AGL
Clouds: sky clear below 12,000 feet AGL
Present Weather: automated observation with no human augmentation;
there may or may not be significant weather present at this time
KZPH 291255Z AUTO 13008G14KT 10SM CLR 25/22 A3015 RMK AO2 T02540220

Conditions at: KZPH observed 29 April 2017  12:35 UTC
Temperature: 24.5°C (76°F)
Dewpoint: 22.3°C (72°F) [RH = 88%]
Pressure (altimeter): 30.15 inches Hg (1021.1 mb)
Winds: calm
Visibility: 10 or more miles (16+ km)
Ceiling: at least 12,000 feet AGL
Clouds: sky clear below 12,000 feet AGL
Present Weather: automated observation with no human augmentation;
there may or may not be significant weather present at this time
KZPH 291235Z AUTO 00000KT 10SM CLR 25/22 A3015 RMK AO2 T02450223

Conditions at: KZPH observed 29 April 2017  12:15 UTC
Temperature: 23.3°C (74°F)
Dewpoint: 22.1°C (72°F) [RH = 93%]
Pressure (altimeter): 30.15 inches Hg (1021.1 mb)
Winds: from the SE (130 degrees) at 7 MPH (6 knots; 3.1 m/s)
Visibility: 10 or more miles (16+ km)
Ceiling: at least 12,000 feet AGL
Clouds: sky clear below 12,000 feet AGL
Present Weather: automated observation with no human augmentation;
there may or may not be significant weather present at this time
KZPH 291215Z AUTO 13006KT 10SM CLR 23/22 A3015 RMK AO2 T02330221

Conditions at: KZPH observed 29 April 2017  11:55 UTC
Temperature: 22.6°C (73°F)
Dewpoint: 21.9°C (71°F) [RH = 96%]
Pressure (altimeter): 30.14 inches Hg (1020.7 mb)
Winds: from the ESE (110 degrees) at 5 MPH (4 knots; 2.1 m/s)
Visibility: 7 miles (11 km)
Ceiling: at least 12,000 feet AGL
Clouds: sky clear below 12,000 feet AGL
Present Weather: automated observation with no human augmentation;
there may or may not be significant weather present at this time
KZPH 291155Z AUTO 11004KT 7SM CLR 23/22 A3014 RMK AO2 T02260219 10235 20215

Conditions at: KZPH observed 29 April 2017  11:35 UTC
Temperature: 22.1°C (72°F)
Dewpoint: 21.6°C (71°F) [RH = 97%]
Pressure (altimeter): 30.13 inches Hg (1020.4 mb)
Winds: from the ESE (110 degrees) at 5 MPH (4 knots; 2.1 m/s)
Visibility: 7 miles (11 km)
Ceiling: at least 12,000 feet AGL
Clouds: sky clear below 12,000 feet AGL
Present Weather: automated observation with no human augmentation;
there may or may not be significant weather present at this time
KZPH 291135Z AUTO 11004KT 7SM CLR 22/22 A3013 RMK AO2 T02210216

Conditions at: KZPH observed 29 April 2017  11:15 UTC
Temperature: 21.6°C (71°F)
Dewpoint: 21.2°C (70°F) [RH = 98%]
Pressure (altimeter): 30.13 inches Hg (1020.4 mb)
Winds: from the ESE (110 degrees) at 5 MPH (4 knots; 2.1 m/s)
Visibility: 5 miles (8 km)
Ceiling: at least 12,000 feet AGL
Clouds: sky clear below 12,000 feet AGL
Present Weather: BR  (mist)
KZPH 291115Z AUTO 11004KT 5SM BR CLR 22/21 A3013 RMK AO2 T02160212

Conditions at: KZPH observed 29 April 2017  10:55 UTC
Temperature: 21.7°C (71°F)
Dewpoint: 21.0°C (70°F) [RH = 96%]
Pressure (altimeter): 30.12 inches Hg (1020.1 mb)
Winds: from the E (100 degrees) at 3 MPH (3 knots; 1.6 m/s)
Visibility: 7 miles (11 km)
Ceiling: at least 12,000 feet AGL
Clouds: sky clear below 12,000 feet AGL
Present Weather: automated observation with no human augmentation;
there may or may not be significant weather present at this time
KZPH 291055Z AUTO 10003KT 7SM CLR 22/21 A3012 RMK AO2 T02170210

Conditions at: KZPH observed 29 April 2017  10:35 UTC
Temperature: 22.1°C (72°F)
Dewpoint: 21.2°C (70°F) [RH = 95%]
Pressure (altimeter): 30.12 inches Hg (1020.1 mb)
Winds: from the E (80 degrees) at 3 MPH (3 knots; 1.6 m/s)
Visibility: 10 or more miles (16+ km)
Ceiling: at least 12,000 feet AGL
Clouds: sky clear below 12,000 feet AGL
Present Weather: automated observation with no human augmentation;
there may or may not be significant weather present at this time
KZPH 291035Z AUTO 08003KT 10SM CLR 22/21 A3012 RMK AO2 T02210212

Conditions at: KZPH observed 29 April 2017  10:15 UTC
Temperature: 22.3°C (72°F)
Dewpoint: 21.5°C (71°F) [RH = 95%]
Pressure (altimeter): 30.11 inches Hg (1019.7 mb)
Winds: from the E (100 degrees) at 5 MPH (4 knots; 2.1 m/s)
Visibility: 10 or more miles (16+ km)
Ceiling: at least 12,000 feet AGL
Clouds: sky clear below 12,000 feet AGL
Present Weather: automated observation with no human augmentation;
there may or may not be significant weather present at this time
KZPH 291015Z AUTO 10004KT 10SM CLR 22/22 A3011 RMK AO2 T02230215

Conditions at: KZPH observed 29 April 2017  09:55 UTC
Temperature: 22.5°C (72°F)
Dewpoint: 21.5°C (71°F) [RH = 94%]
Pressure (altimeter): 30.11 inches Hg (1019.7 mb)
Winds: from the ESE (120 degrees) at 5 MPH (4 knots; 2.1 m/s)
Visibility: 10 or more miles (16+ km)
Ceiling: at least 12,000 feet AGL
Clouds: scattered clouds at 1200 feet AGL
Present Weather: automated observation with no human augmentation;
there may or may not be significant weather present at this time
KZPH 290955Z AUTO 12004KT 10SM SCT012 23/22 A3011 RMK AO2 T02250215

Conditions at: KZPH observed 29 April 2017  09:35 UTC
Temperature: 22.7°C (73°F)
Dewpoint: 21.6°C (71°F) [RH = 94%]
Pressure (altimeter): 30.11 inches Hg (1019.7 mb)
Winds: from the SE (130 degrees) at 6 MPH (5 knots; 2.6 m/s)
Visibility: 10 or more miles (16+ km)
Ceiling: at least 12,000 feet AGL
Clouds: scattered clouds at 1200 feet AGL
Present Weather: automated observation with no human augmentation;
there may or may not be significant weather present at this time
KZPH 290935Z AUTO 13005KT 10SM SCT012 23/22 A3011 RMK AO2 T02270216

Conditions at: KZPH observed 29 April 2017  09:15 UTC
Temperature: 22.7°C (73°F)
Dewpoint: 21.5°C (71°F) [RH = 93%]
Pressure (altimeter): 30.11 inches Hg (1019.7 mb)
Winds: from the ESE (120 degrees) at 6 MPH (5 knots; 2.6 m/s)
Visibility: 10 or more miles (16+ km)
Ceiling: at least 12,000 feet AGL
Clouds: sky clear below 12,000 feet AGL
Present Weather: automated observation with no human augmentation;
there may or may not be significant weather present at this time
KZPH 290915Z AUTO 12005KT 10SM CLR 23/22 A3011 RMK AO2 T02270215

Conditions at: KZPH observed 29 April 2017  08:55 UTC
Temperature: 22.5°C (72°F)
Dewpoint: 21.3°C (70°F) [RH = 93%]
Pressure (altimeter): 30.11 inches Hg (1019.7 mb)
Winds: from the ESE (120 degrees) at 5 MPH (4 knots; 2.1 m/s)
Visibility: 10 or more miles (16+ km)
Ceiling: at least 12,000 feet AGL
Clouds: sky clear below 12,000 feet AGL
Present Weather: automated observation with no human augmentation;
there may or may not be significant weather present at this time
KZPH 290855Z AUTO 12004KT 10SM CLR 23/21 A3011 RMK AO2 T02250213

Conditions at: KZPH observed 29 April 2017  08:35 UTC
Temperature: 22.0°C (72°F)
Dewpoint: 21.0°C (70°F) [RH = 94%]
Pressure (altimeter): 30.11 inches Hg (1019.7 mb)
Winds: from the ESE (120 degrees) at 5 MPH (4 knots; 2.1 m/s)
Visibility: 10 or more miles (16+ km)
Ceiling: at least 12,000 feet AGL
Clouds: sky clear below 12,000 feet AGL
Present Weather: automated observation with no human augmentation;
there may or may not be significant weather present at this time
KZPH 290835Z AUTO 12004KT 10SM CLR 22/21 A3011 RMK AO2 T02200210

Conditions at: KZPH observed 29 April 2017  08:15 UTC
Temperature: 21.6°C (71°F)
Dewpoint: 20.5°C (69°F) [RH = 93%]
Pressure (altimeter): 30.11 inches Hg (1019.7 mb)
Winds: from the ESE (120 degrees) at 3 MPH (3 knots; 1.6 m/s)
Visibility: 10 or more miles (16+ km)
Ceiling: at least 12,000 feet AGL
Clouds: sky clear below 12,000 feet AGL
Present Weather: automated observation with no human augmentation;
there may or may not be significant weather present at this time
KZPH 290815Z AUTO 12003KT 10SM CLR 22/21 A3011 RMK AO2 T02160205

Conditions at: KZPH observed 29 April 2017  07:55 UTC
Temperature: 21.7°C (71°F)
Dewpoint: 20.3°C (69°F) [RH = 92%]
Pressure (altimeter): 30.11 inches Hg (1019.7 mb)
Winds: calm
Visibility: 10 or more miles (16+ km)
Ceiling: at least 12,000 feet AGL
Clouds: sky clear below 12,000 feet AGL
Present Weather: automated observation with no human augmentation;
there may or may not be significant weather present at this time
KZPH 290755Z AUTO 00000KT 10SM CLR 22/20 A3011 RMK AO2 T02170203

Conditions at: KZPH observed 29 April 2017  07:35 UTC
Temperature: 21.6°C (71°F)
Dewpoint: 20.1°C (68°F) [RH = 91%]
Pressure (altimeter): 30.11 inches Hg (1019.7 mb)
Winds: calm
Visibility: 10 or more miles (16+ km)
Ceiling: at least 12,000 feet AGL
Clouds: sky clear below 12,000 feet AGL
Present Weather: automated observation with no human augmentation;
there may or may not be significant weather present at this time
KZPH 290735Z AUTO 00000KT 10SM CLR 22/20 A3011 RMK AO2 T02160201

Conditions at: KZPH observed 29 April 2017  07:15 UTC
Temperature: 22.3°C (72°F)
Dewpoint: 20.2°C (68°F) [RH = 88%]
Pressure (altimeter): 30.11 inches Hg (1019.7 mb)
Winds: calm
Visibility: 10 or more miles (16+ km)
Ceiling: at least 12,000 feet AGL
Clouds: sky clear below 12,000 feet AGL
Present Weather: automated observation with no human augmentation;
there may or may not be significant weather present at this time
KZPH 290715Z AUTO 00000KT 10SM CLR 22/20 A3011 RMK AO2 T02230202

Conditions at: KZPH observed 29 April 2017  06:55 UTC
Temperature: 22.4°C (72°F)
Dewpoint: 20.1°C (68°F) [RH = 87%]
Pressure (altimeter): 30.12 inches Hg (1020.1 mb)
Winds: calm
Visibility: 10 or more miles (16+ km)
Ceiling: at least 12,000 feet AGL
Clouds: sky clear below 12,000 feet AGL
Present Weather: automated observation with no human augmentation;
there may or may not be significant weather present at this time
KZPH 290655Z AUTO 00000KT 10SM CLR 22/20 A3012 RMK AO2 T02240201

Conditions at: KZPH observed 29 April 2017  06:35 UTC
Temperature: 22.8°C (73°F)
Dewpoint: 20.1°C (68°F) [RH = 85%]
Pressure (altimeter): 30.12 inches Hg (1020.1 mb)
Winds: from the SE (130 degrees) at 3 MPH (3 knots; 1.6 m/s)
Visibility: 10 or more miles (16+ km)
Ceiling: at least 12,000 feet AGL
Clouds: sky clear below 12,000 feet AGL
Present Weather: automated observation with no human augmentation;
there may or may not be significant weather present at this time
KZPH 290635Z AUTO 13003KT 10SM CLR 23/20 A3012 RMK AO2 T02280201

Conditions at: KZPH observed 29 April 2017  06:15 UTC
Temperature: 22.7°C (73°F)
Dewpoint: 19.9°C (68°F) [RH = 84%]
Pressure (altimeter): 30.12 inches Hg (1020.1 mb)
Winds: calm
Visibility: 10 or more miles (16+ km)
Ceiling: at least 12,000 feet AGL
Clouds: sky clear below 12,000 feet AGL
Present Weather: automated observation with no human augmentation;
there may or may not be significant weather present at this time
KZPH 290615Z AUTO 00000KT 10SM CLR 23/20 A3012 RMK AO2 T02270199

Conditions at: KZPH observed 29 April 2017  05:55 UTC
Temperature: 23.4°C (74°F)
Dewpoint: 19.9°C (68°F) [RH = 81%]
Pressure (altimeter): 30.12 inches Hg (1020.1 mb)
Winds: calm
Visibility: 10 or more miles (16+ km)
Ceiling: at least 12,000 feet AGL
Clouds: sky clear below 12,000 feet AGL
Present Weather: automated observation with no human augmentation;
there may or may not be significant weather present at this time
KZPH 290555Z AUTO 00000KT 10SM CLR 23/20 A3012 RMK AO2 T02340199 10321 20234 403650176

Conditions at: KZPH observed 29 April 2017  05:35 UTC
Temperature: 23.8°C (75°F)
Dewpoint: 19.9°C (68°F) [RH = 79%]
Pressure (altimeter): 30.12 inches Hg (1020.1 mb)
Winds: calm
Visibility: 10 or more miles (16+ km)
Ceiling: at least 12,000 feet AGL
Clouds: sky clear below 12,000 feet AGL
Present Weather: automated observation with no human augmentation;
there may or may not be significant weather present at this time
KZPH 290535Z AUTO 00000KT 10SM CLR 24/20 A3012 RMK AO2 T02380199

Conditions at: KZPH observed 29 April 2017  05:15 UTC
Temperature: 24.1°C (75°F)
Dewpoint: 19.9°C (68°F) [RH = 77%]
Pressure (altimeter): 30.13 inches Hg (1020.4 mb)
Winds: from the SE (130 degrees) at 3 MPH (3 knots; 1.6 m/s)
Visibility: 10 or more miles (16+ km)
Ceiling: at least 12,000 feet AGL
Clouds: sky clear below 12,000 feet AGL
Present Weather: automated observation with no human augmentation;
there may or may not be significant weather present at this time
KZPH 290515Z AUTO 13003KT 10SM CLR 24/20 A3013 RMK AO2 T02410199

Conditions at: KZPH observed 29 April 2017  04:55 UTC
Temperature: 24.6°C (76°F)
Dewpoint: 20.0°C (68°F) [RH = 76%]
Pressure (altimeter): 30.13 inches Hg (1020.4 mb)
Winds: calm
Visibility: 10 or more miles (16+ km)
Ceiling: at least 12,000 feet AGL
Clouds: sky clear below 12,000 feet AGL
Present Weather: automated observation with no human augmentation;
there may or may not be significant weather present at this time
KZPH 290455Z AUTO 00000KT 10SM CLR 25/20 A3013 RMK AO2 T02460200

Conditions at: KZPH observed 29 April 2017  04:35 UTC
Temperature: 25.1°C (77°F)
Dewpoint: 20.0°C (68°F) [RH = 73%]
Pressure (altimeter): 30.12 inches Hg (1020.1 mb)
Winds: calm
Visibility: 10 or more miles (16+ km)
Ceiling: at least 12,000 feet AGL
Clouds: sky clear below 12,000 feet AGL
Present Weather: automated observation with no human augmentation;
there may or may not be significant weather present at this time
KZPH 290435Z AUTO 00000KT 10SM CLR 25/20 A3012 RMK AO2 T02510200

Conditions at: KZPH observed 29 April 2017  04:15 UTC
Temperature: 25.8°C (78°F)
Dewpoint: 20.1°C (68°F) [RH = 71%]
Pressure (altimeter): 30.11 inches Hg (1019.7 mb)
Winds: from the SE (140 degrees) at 8 MPH (7 knots; 3.6 m/s)
Visibility: 10 or more miles (16+ km)
Ceiling: at least 12,000 feet AGL
Clouds: sky clear below 12,000 feet AGL
Present Weather: automated observation with no human augmentation;
there may or may not be significant weather present at this time
KZPH 290415Z AUTO 14007KT 10SM CLR 26/20 A3011 RMK AO2 T02580201

Conditions at: KZPH observed 29 April 2017  03:55 UTC
Temperature: 26.0°C (79°F)
Dewpoint: 20.2°C (68°F) [RH = 70%]
Pressure (altimeter): 30.11 inches Hg (1019.7 mb)
Winds: from the ESE (120 degrees) at 5 MPH (4 knots; 2.1 m/s)
Visibility: 10 or more miles (16+ km)
Ceiling: at least 12,000 feet AGL
Clouds: sky clear below 12,000 feet AGL
Present Weather: automated observation with no human augmentation;
there may or may not be significant weather present at this time
KZPH 290355Z AUTO 12004KT 10SM CLR 26/20 A3011 RMK AO2 T02600202

Conditions at: KZPH observed 29 April 2017  03:35 UTC
Temperature: 26.7°C (80°F)
Dewpoint: 20.2°C (68°F) [RH = 68%]
Pressure (altimeter): 30.11 inches Hg (1019.7 mb)
Winds: from the SE (140 degrees) at 5 MPH (4 knots; 2.1 m/s)
Visibility: 10 or more miles (16+ km)
Ceiling: at least 12,000 feet AGL
Clouds: sky clear below 12,000 feet AGL
Present Weather: automated observation with no human augmentation;
there may or may not be significant weather present at this time
KZPH 290335Z AUTO 14004KT 10SM CLR 27/20 A3011 RMK AO2 T02670202

Conditions at: KZPH observed 29 April 2017  03:15 UTC
Temperature: 27.2°C (81°F)
Dewpoint: 20.3°C (69°F) [RH = 66%]
Pressure (altimeter): 30.10 inches Hg (1019.4 mb)
Winds: from the SE (130 degrees) at 8 MPH (7 knots; 3.6 m/s)
Visibility: 10 or more miles (16+ km)
Ceiling: at least 12,000 feet AGL
Clouds: sky clear below 12,000 feet AGL
Present Weather: automated observation with no human augmentation;
there may or may not be significant weather present at this time
KZPH 290315Z AUTO 13007KT 10SM CLR 27/20 A3010 RMK AO2 T02720203

Conditions at: KZPH observed 29 April 2017  02:55 UTC
Temperature: 27.6°C (82°F)
Dewpoint: 20.0°C (68°F) [RH = 63%]
Pressure (altimeter): 30.10 inches Hg (1019.4 mb)
Winds: from the SE (130 degrees) at 12 MPH (10 knots; 5.2 m/s)
gusting to 16 MPH (14 knots; 7.3 m/s)
Visibility: 10 or more miles (16+ km)
Ceiling: at least 12,000 feet AGL
Clouds: sky clear below 12,000 feet AGL
Present Weather: automated observation with no human augmentation;
there may or may not be significant weather present at this time
KZPH 290255Z AUTO 13010G14KT 10SM CLR 28/20 A3010 RMK AO2 T02760200

Conditions at: KZPH observed 29 April 2017  02:35 UTC
Temperature: 28.0°C (82°F)
Dewpoint: 19.6°C (67°F) [RH = 60%]
Pressure (altimeter): 30.09 inches Hg (1019.0 mb)
Winds: from the SE (130 degrees) at 10 MPH (9 knots; 4.7 m/s)
Visibility: 10 or more miles (16+ km)
Ceiling: at least 12,000 feet AGL
Clouds: sky clear below 12,000 feet AGL
Present Weather: automated observation with no human augmentation;
there may or may not be significant weather present at this time
KZPH 290235Z AUTO 13009KT 10SM CLR 28/20 A3009 RMK AO2 T02800196

Conditions at: KZPH observed 29 April 2017  02:15 UTC
Temperature: 28.0°C (82°F)
Dewpoint: 20.0°C (68°F) [RH = 62%]
Pressure (altimeter): 30.09 inches Hg (1019.0 mb)
Winds: from the SE (130 degrees) at 6 MPH (5 knots; 2.6 m/s)
Visibility: 10 or more miles (16+ km)
Ceiling: at least 12,000 feet AGL
Clouds: sky clear below 12,000 feet AGL
Present Weather: automated observation with no human augmentation;
there may or may not be significant weather present at this time
KZPH 290215Z AUTO 13005KT 10SM CLR 28/20 A3009 RMK AO2 T02800200

Conditions at: KZPH observed 29 April 2017  01:55 UTC
Temperature: 28.1°C (83°F)
Dewpoint: 20.1°C (68°F) [RH = 62%]
Pressure (altimeter): 30.08 inches Hg (1018.7 mb)
Winds: from the ESE (110 degrees) at 7 MPH (6 knots; 3.1 m/s)
Visibility: 10 or more miles (16+ km)
Ceiling: at least 12,000 feet AGL
Clouds: sky clear below 12,000 feet AGL
Present Weather: automated observation with no human augmentation;
there may or may not be significant weather present at this time
KZPH 290155Z AUTO 11006KT 10SM CLR 28/20 A3008 RMK AO2 T02810201

Conditions at: KZPH observed 29 April 2017  01:35 UTC
Temperature: 28.6°C (83°F)
Dewpoint: 20.0°C (68°F) [RH = 60%]
Pressure (altimeter): 30.07 inches Hg (1018.4 mb)
Winds: from the ESE (120 degrees) at 8 MPH (7 knots; 3.6 m/s)
Visibility: 10 or more miles (16+ km)
Ceiling: at least 12,000 feet AGL
Clouds: sky clear below 12,000 feet AGL
Present Weather: automated observation with no human augmentation;
there may or may not be significant weather present at this time
KZPH 290135Z AUTO 12007KT 10SM CLR 29/20 A3007 RMK AO2 T02860200

Conditions at: KZPH observed 29 April 2017  01:15 UTC
Temperature: 29.2°C (85°F)
Dewpoint: 19.7°C (67°F) [RH = 57%]
Pressure (altimeter): 30.06 inches Hg (1018.0 mb)
Winds: from the ESE (110 degrees) at 8 MPH (7 knots; 3.6 m/s)
Visibility: 10 or more miles (16+ km)
Ceiling: at least 12,000 feet AGL
Clouds: sky clear below 12,000 feet AGL
Present Weather: automated observation with no human augmentation;
there may or may not be significant weather present at this time
KZPH 290115Z AUTO 11007KT 10SM CLR 29/20 A3006 RMK AO2 T02920197

Conditions at: KZPH observed 29 April 2017  00:55 UTC
Temperature: 30.0°C (86°F)
Dewpoint: 19.5°C (67°F) [RH = 53%]
Pressure (altimeter): 30.05 inches Hg (1017.7 mb)
Winds: from the ESE (120 degrees) at 9 MPH (8 knots; 4.2 m/s)
Visibility: 10 or more miles (16+ km)
Ceiling: at least 12,000 feet AGL
Clouds: sky clear below 12,000 feet AGL
Present Weather: automated observation with no human augmentation;
there may or may not be significant weather present at this time
KZPH 290055Z AUTO 12008KT 10SM CLR 30/20 A3005 RMK AO2 T03000195

Conditions at: KZPH observed 29 April 2017  00:35 UTC
Temperature: 30.6°C (87°F)
Dewpoint: 19.5°C (67°F) [RH = 52%]
Pressure (altimeter): 30.04 inches Hg (1017.4 mb)
Winds: from the ESE (120 degrees) at 10 MPH (9 knots; 4.7 m/s)
Visibility: 10 or more miles (16+ km)
Ceiling: at least 12,000 feet AGL
Clouds: sky clear below 12,000 feet AGL
Present Weather: automated observation with no human augmentation;
there may or may not be significant weather present at this time
KZPH 290035Z AUTO 12009KT 10SM CLR 31/20 A3004 RMK AO2 T03060195

Conditions at: KZPH observed 29 April 2017  00:15 UTC
Temperature: 31.4°C (89°F)
Dewpoint: 19.2°C (67°F) [RH = 48%]
Pressure (altimeter): 30.04 inches Hg (1017.4 mb)
Winds: from the ESE (120 degrees) at 8 MPH (7 knots; 3.6 m/s)
Visibility: 10 or more miles (16+ km)
Ceiling: at least 12,000 feet AGL
Clouds: sky clear below 12,000 feet AGL
Present Weather: automated observation with no human augmentation;
there may or may not be significant weather present at this time
KZPH 290015Z AUTO 12007KT 10SM CLR 31/19 A3004 RMK AO2 T03140192

Conditions at: KZPH observed 28 April 2017  23:55 UTC
Temperature: 32.2°C (90°F)
Dewpoint: 19.0°C (66°F) [RH = 46%]
Pressure (altimeter): 30.03 inches Hg (1017.0 mb)
Winds: from the SE (130 degrees) at 9 MPH (8 knots; 4.2 m/s)
Visibility: 10 or more miles (16+ km)
Ceiling: at least 12,000 feet AGL
Clouds: sky clear below 12,000 feet AGL
Present Weather: automated observation with no human augmentation;
there may or may not be significant weather present at this time
KZPH 282355Z AUTO 13008KT 10SM CLR 32/19 A3003 RMK AO2 T03220190 10365 20322

Conditions at: KZPH observed 28 April 2017  23:35 UTC
Temperature: 33.4°C (92°F)
Dewpoint: 17.7°C (64°F) [RH = 39%]
Pressure (altimeter): 30.03 inches Hg (1017.0 mb)
Winds: from the SE (130 degrees) at 8 MPH (7 knots; 3.6 m/s)
Visibility: 10 or more miles (16+ km)
Ceiling: at least 12,000 feet AGL
Clouds: sky clear below 12,000 feet AGL
Present Weather: automated observation with no human augmentation;
there may or may not be significant weather present at this time
KZPH 282335Z AUTO 13007KT 10SM CLR 33/18 A3003 RMK AO2 T03340177

Conditions at: KZPH observed 28 April 2017  23:15 UTC
Temperature: 33.8°C (93°F)
Dewpoint: 16.8°C (62°F) [RH = 36%]
Pressure (altimeter): 30.02 inches Hg (1016.7 mb)
Winds: from the E (100 degrees) at 6 MPH (5 knots; 2.6 m/s)
Visibility: 10 or more miles (16+ km)
Ceiling: at least 12,000 feet AGL
Clouds: sky clear below 12,000 feet AGL
Present Weather: automated observation with no human augmentation;
there may or may not be significant weather present at this time
KZPH 282315Z AUTO 10005KT 10SM CLR 34/17 A3002 RMK AO2 T03380168

Conditions at: KZPH observed 28 April 2017  22:55 UTC
Temperature: 34.0°C (93°F)
Dewpoint: 16.8°C (62°F) [RH = 36%]
Pressure (altimeter): 30.02 inches Hg (1016.7 mb)
Winds: from the E (100 degrees) at 8 MPH (7 knots; 3.6 m/s)
Visibility: 10 or more miles (16+ km)
Ceiling: at least 12,000 feet AGL
Clouds: scattered clouds at 7500 feet AGL
scattered clouds at 9000 feet AGL
Present Weather: automated observation with no human augmentation;
there may or may not be significant weather present at this time
KZPH 282255Z AUTO 10007KT 10SM SCT075 SCT090 34/17 A3002 RMK AO2 T03400168

Conditions at: KZPH observed 28 April 2017  22:35 UTC
Temperature: 34.2°C (94°F)
Dewpoint: 16.6°C (62°F) [RH = 35%]
Pressure (altimeter): 30.02 inches Hg (1016.7 mb)
Winds: from the ESE (110 degrees) at 7 MPH (6 knots; 3.1 m/s)
Visibility: 10 or more miles (16+ km)
Ceiling: at least 12,000 feet AGL
Clouds: sky clear below 12,000 feet AGL
Present Weather: automated observation with no human augmentation;
there may or may not be significant weather present at this time
KZPH 282235Z AUTO 11006KT 10SM CLR 34/17 A3002 RMK AO2 T03420166

Conditions at: KZPH observed 28 April 2017  22:15 UTC
Temperature: 34.3°C (94°F)
Dewpoint: 16.6°C (62°F) [RH = 35%]
Pressure (altimeter): 30.01 inches Hg (1016.3 mb)
Winds: from the SE (130 degrees) at 7 MPH (6 knots; 3.1 m/s)
Visibility: 10 or more miles (16+ km)
Ceiling: at least 12,000 feet AGL
Clouds: scattered clouds at 7000 feet AGL
Present Weather: automated observation with no human augmentation;
there may or may not be significant weather present at this time
KZPH 282215Z AUTO 13006KT 10SM SCT070 34/17 A3001 RMK AO2 T03430166

Conditions at: KZPH observed 28 April 2017  21:55 UTC
Temperature: 35.1°C (95°F)
Dewpoint: 17.1°C (63°F) [RH = 34%]
Pressure (altimeter): 30.01 inches Hg (1016.3 mb)
Winds: calm
Visibility: 10 or more miles (16+ km)
Ceiling: at least 12,000 feet AGL
Clouds: sky clear below 12,000 feet AGL
Present Weather: automated observation with no human augmentation;
there may or may not be significant weather present at this time
KZPH 282155Z AUTO 00000KT 10SM CLR 35/17 A3001 RMK AO2 T03510171

Conditions at: KZPH observed 28 April 2017  21:35 UTC
Temperature: 36.0°C (97°F)
Dewpoint: 17.1°C (63°F) [RH = 33%]
Pressure (altimeter): 30.01 inches Hg (1016.3 mb)
Winds: from the SE (140 degrees) at 3 MPH (3 knots; 1.6 m/s)
Visibility: 10 or more miles (16+ km)
Ceiling: at least 12,000 feet AGL
Clouds: sky clear below 12,000 feet AGL
Present Weather: automated observation with no human augmentation;
there may or may not be significant weather present at this time
KZPH 282135Z AUTO 14003KT 10SM CLR 36/17 A3001 RMK AO2 T03600171

Conditions at: KZPH observed 28 April 2017  21:15 UTC
Temperature: 36.1°C (97°F)
Dewpoint: 17.1°C (63°F) [RH = 33%]
Pressure (altimeter): 30.01 inches Hg (1016.3 mb)
Winds: from the SE (130 degrees) at 8 MPH (7 knots; 3.6 m/s)
Visibility: 10 or more miles (16+ km)
Ceiling: at least 12,000 feet AGL
Clouds: scattered clouds at 7500 feet AGL
scattered clouds at 8500 feet AGL
Present Weather: automated observation with no human augmentation;
there may or may not be significant weather present at this time
KZPH 282115Z AUTO 13007KT 10SM SCT075 SCT085 36/17 A3001 RMK AO2 T03610171

Conditions at: KZPH observed 28 April 2017  20:55 UTC
Temperature: 34.6°C (94°F)
Dewpoint: 16.7°C (62°F) [RH = 35%]
Pressure (altimeter): 30.02 inches Hg (1016.7 mb)
Winds: from the SE (130 degrees) at 9 MPH (8 knots; 4.2 m/s)
Visibility: 10 or more miles (16+ km)
Ceiling: at least 12,000 feet AGL
Clouds: scattered clouds at 8500 feet AGL
Present Weather: automated observation with no human augmentation;
there may or may not be significant weather present at this time
KZPH 282055Z AUTO 13008KT 10SM SCT085 35/17 A3002 RMK AO2 T03460167

Conditions at: KZPH observed 28 April 2017  20:35 UTC
Temperature: 36.3°C (97°F)
Dewpoint: 16.6°C (62°F) [RH = 31%]
Pressure (altimeter): 30.02 inches Hg (1016.7 mb)
Winds: from the E (100 degrees) at 9 MPH (8 knots; 4.2 m/s)
Visibility: 10 or more miles (16+ km)
Ceiling: at least 12,000 feet AGL
Clouds: sky clear below 12,000 feet AGL
Present Weather: automated observation with no human augmentation;
there may or may not be significant weather present at this time
KZPH 282035Z AUTO 10008KT 070V130 10SM CLR 36/17 A3002 RMK AO2 T03630166

Conditions at: KZPH observed 28 April 2017  20:15 UTC
Temperature: 35.2°C (95°F)
Dewpoint: 17.2°C (63°F) [RH = 35%]
Pressure (altimeter): 30.03 inches Hg (1017.0 mb)
Winds: from the SE (140 degrees) at 9 MPH (8 knots; 4.2 m/s)
Visibility: 10 or more miles (16+ km)
Ceiling: at least 12,000 feet AGL
Clouds: sky clear below 12,000 feet AGL
Present Weather: automated observation with no human augmentation;
there may or may not be significant weather present at this time
KZPH 282015Z AUTO 14008KT 10SM CLR 35/17 A3003 RMK AO2 T03520172

Conditions at: KZPH observed 28 April 2017  19:55 UTC
Temperature: 36.0°C (97°F)
Dewpoint: 17.0°C (63°F) [RH = 33%]
Pressure (altimeter): 30.03 inches Hg (1017.0 mb)
Winds: from the E (100 degrees) at 8 MPH (7 knots; 3.6 m/s)
Visibility: 10 or more miles (16+ km)
Ceiling: at least 12,000 feet AGL
Clouds: sky clear below 12,000 feet AGL
Present Weather: automated observation with no human augmentation;
there may or may not be significant weather present at this time
KZPH 281955Z AUTO 10007KT 10SM CLR 36/17 A3003 RMK AO2 T03600170

Conditions at: KZPH observed 28 April 2017  19:35 UTC
Temperature: 35.5°C (96°F)
Dewpoint: 18.1°C (65°F) [RH = 36%]
Pressure (altimeter): 30.04 inches Hg (1017.4 mb)
Winds: from the SE (140 degrees) at 7 MPH (6 knots; 3.1 m/s)
Visibility: 10 or more miles (16+ km)
Ceiling: at least 12,000 feet AGL
Clouds: scattered clouds at 6500 feet AGL
scattered clouds at 8000 feet AGL
Present Weather: automated observation with no human augmentation;
there may or may not be significant weather present at this time
KZPH 281935Z AUTO 14006KT 10SM SCT065 SCT080 36/18 A3004 RMK AO2 T03550181

Conditions at: KZPH observed 28 April 2017  19:15 UTC
Temperature: 35.1°C (95°F)
Dewpoint: 17.9°C (64°F) [RH = 36%]
Pressure (altimeter): 30.04 inches Hg (1017.4 mb)
Winds: from the S (170 degrees) at 8 MPH (7 knots; 3.6 m/s)
gusting to 16 MPH (14 knots; 7.3 m/s)
Visibility: 10 or more miles (16+ km)
Ceiling: at least 12,000 feet AGL
Clouds: scattered clouds at 6500 feet AGL
scattered clouds at 8000 feet AGL
Present Weather: automated observation with no human augmentation;
there may or may not be significant weather present at this time
KZPH 281915Z AUTO 17007G14KT 140V200 10SM SCT065 SCT080 35/18 A3004 RMK AO2 T03510179

Conditions at: KZPH observed 28 April 2017  18:55 UTC
Temperature: 35.6°C (96°F)
Dewpoint: 18.4°C (65°F) [RH = 36%]
Pressure (altimeter): 30.05 inches Hg (1017.7 mb)
Winds: from the ESE (120 degrees) at 9 MPH (8 knots; 4.2 m/s)
gusting to 17 MPH (15 knots; 7.8 m/s)
Visibility: 10 or more miles (16+ km)
Ceiling: at least 12,000 feet AGL
Clouds: scattered clouds at 6000 feet AGL
scattered clouds at 7000 feet AGL
Present Weather: automated observation with no human augmentation;
there may or may not be significant weather present at this time
KZPH 281855Z AUTO 12008G15KT 10SM SCT060 SCT070 36/18 A3005 RMK AO2 T03560184

Conditions at: KZPH observed 28 April 2017  18:35 UTC
Temperature: 34.3°C (94°F)
Dewpoint: 18.5°C (65°F) [RH = 39%]
Pressure (altimeter): 30.06 inches Hg (1018.0 mb)
Winds: from the SE (140 degrees) at 10 MPH (9 knots; 4.7 m/s)
gusting to 18 MPH (16 knots; 8.3 m/s)
Visibility: 10 or more miles (16+ km)
Ceiling: at least 12,000 feet AGL
Clouds: scattered clouds at 6000 feet AGL
scattered clouds at 7000 feet AGL
Present Weather: automated observation with no human augmentation;
there may or may not be significant weather present at this time
KZPH 281835Z AUTO 14009G16KT 10SM SCT060 SCT070 34/19 A3006 RMK AO2 T03430185

Conditions at: KZPH observed 28 April 2017  18:15 UTC
Temperature: 34.8°C (95°F)
Dewpoint: 19.0°C (66°F) [RH = 40%]
Pressure (altimeter): 30.06 inches Hg (1018.0 mb)
Winds: from the SE (140 degrees) at 10 MPH (9 knots; 4.7 m/s)
Visibility: 10 or more miles (16+ km)
Ceiling: at least 12,000 feet AGL
Clouds: scattered clouds at 6000 feet AGL
scattered clouds at 7000 feet AGL
Present Weather: automated observation with no human augmentation;
there may or may not be significant weather present at this time
KZPH 281815Z AUTO 14009KT 10SM SCT060 SCT070 35/19 A3006 RMK AO2 T03480190

Conditions at: KZPH observed 28 April 2017  17:55 UTC
Temperature: 34.4°C (94°F)
Dewpoint: 18.9°C (66°F) [RH = 40%]
Pressure (altimeter): 30.06 inches Hg (1018.0 mb)
Winds: from the S (180 degrees) at 12 MPH (10 knots; 5.2 m/s)
gusting to 21 MPH (18 knots; 9.4 m/s)
Visibility: 10 or more miles (16+ km)
Ceiling: at least 12,000 feet AGL
Clouds: scattered clouds at 4900 feet AGL
Present Weather: automated observation with no human augmentation;
there may or may not be significant weather present at this time
KZPH 281755Z AUTO 18010G18KT 10SM SCT049 34/19 A3006 RMK AO2 T03440189 10344 20191

Conditions at: KZPH observed 28 April 2017  17:35 UTC
Temperature: 32.9°C (91°F)
Dewpoint: 20.0°C (68°F) [RH = 47%]
Pressure (altimeter): 30.07 inches Hg (1018.4 mb)
Winds: from the SSE (160 degrees) at 12 MPH (10 knots; 5.2 m/s)
gusting to 17 MPH (15 knots; 7.8 m/s)
Visibility: 10 or more miles (16+ km)
Ceiling: at least 12,000 feet AGL
Clouds: scattered clouds at 4900 feet AGL
scattered clouds at 6000 feet AGL
Present Weather: automated observation with no human augmentation;
there may or may not be significant weather present at this time
KZPH 281735Z AUTO 16010G15KT 10SM SCT049 SCT060 33/20 A3007 RMK AO2 T03290200

Conditions at: KZPH observed 28 April 2017  17:15 UTC
Temperature: 33.4°C (92°F)
Dewpoint: 20.1°C (68°F) [RH = 46%]
Pressure (altimeter): 30.07 inches Hg (1018.4 mb)
Winds: from the SE (140 degrees) at 14 MPH (12 knots; 6.2 m/s)
gusting to 17 MPH (15 knots; 7.8 m/s)
Visibility: 10 or more miles (16+ km)
Ceiling: at least 12,000 feet AGL
Clouds: scattered clouds at 4700 feet AGL
scattered clouds at 6000 feet AGL
Present Weather: automated observation with no human augmentation;
there may or may not be significant weather present at this time
KZPH 281715Z AUTO 14012G15KT 10SM SCT047 SCT060 33/20 A3007 RMK AO2 T03340201

Conditions at: KZPH observed 28 April 2017  16:55 UTC
Temperature: 32.9°C (91°F)
Dewpoint: 20.2°C (68°F) [RH = 47%]
Pressure (altimeter): 30.08 inches Hg (1018.7 mb)
Winds: from the SSE (150 degrees) at 12 MPH (10 knots; 5.2 m/s)
gusting to 23 MPH (20 knots; 10.4 m/s)
Visibility: 10 or more miles (16+ km)
Ceiling: at least 12,000 feet AGL
Clouds: scattered clouds at 4500 feet AGL
Present Weather: automated observation with no human augmentation;
there may or may not be significant weather present at this time
KZPH 281655Z AUTO 15010G20KT 130V190 10SM SCT045 33/20 A3008 RMK AO2 T03290202

Conditions at: KZPH observed 28 April 2017  16:35 UTC
Temperature: 32.7°C (91°F)
Dewpoint: 20.9°C (70°F) [RH = 50%]
Pressure (altimeter): 30.08 inches Hg (1018.7 mb)
Winds: from the SSE (150 degrees) at 13 MPH (11 knots; 5.7 m/s)
gusting to 18 MPH (16 knots; 8.3 m/s)
Visibility: 10 or more miles (16+ km)
Ceiling: at least 12,000 feet AGL
Clouds: scattered clouds at 4100 feet AGL
Present Weather: automated observation with no human augmentation;
there may or may not be significant weather present at this time
KZPH 281635Z AUTO 15011G16KT 10SM SCT041 33/21 A3008 RMK AO2 T03270209

Conditions at: KZPH observed 28 April 2017  16:15 UTC
Temperature: 31.5°C (89°F)
Dewpoint: 21.1°C (70°F) [RH = 54%]
Pressure (altimeter): 30.08 inches Hg (1018.7 mb)
Winds: from the S (180 degrees) at 8 MPH (7 knots; 3.6 m/s)
Visibility: 10 or more miles (16+ km)
Ceiling: at least 12,000 feet AGL
Clouds: scattered clouds at 3700 feet AGL
Present Weather: automated observation with no human augmentation;
there may or may not be significant weather present at this time
KZPH 281615Z AUTO 18007KT 150V220 10SM SCT037 32/21 A3008 RMK AO2 T03150211

Conditions at: KZPH observed 28 April 2017  15:55 UTC
Temperature: 30.6°C (87°F)
Dewpoint: 21.2°C (70°F) [RH = 57%]
Pressure (altimeter): 30.09 inches Hg (1019.0 mb)
Winds: from the S (170 degrees) at 13 MPH (11 knots; 5.7 m/s)
gusting to 16 MPH (14 knots; 7.3 m/s)
Visibility: 10 or more miles (16+ km)
Ceiling: at least 12,000 feet AGL
Clouds: scattered clouds at 3300 feet AGL
Present Weather: automated observation with no human augmentation;
there may or may not be significant weather present at this time
KZPH 281555Z AUTO 17011G14KT 10SM SCT033 31/21 A3009 RMK AO2 T03060212

Conditions at: KZPH observed 28 April 2017  15:35 UTC
Temperature: 31.1°C (88°F)
Dewpoint: 21.5°C (71°F) [RH = 57%]
Pressure (altimeter): 30.09 inches Hg (1019.0 mb)
Winds: from the SE (130 degrees) at 13 MPH (11 knots; 5.7 m/s)
gusting to 16 MPH (14 knots; 7.3 m/s)
Visibility: 10 or more miles (16+ km)
Ceiling: at least 12,000 feet AGL
Clouds: scattered clouds at 3100 feet AGL
Present Weather: automated observation with no human augmentation;
there may or may not be significant weather present at this time
KZPH 281535Z AUTO 13011G14KT 10SM SCT031 31/22 A3009 RMK AO2 T03110215

Conditions at: KZPH observed 28 April 2017  15:15 UTC
Temperature: 30.6°C (87°F)
Dewpoint: 21.2°C (70°F) [RH = 57%]
Pressure (altimeter): 30.09 inches Hg (1019.0 mb)
Winds: from the SSE (160 degrees) at 12 MPH (10 knots; 5.2 m/s)
Visibility: 10 or more miles (16+ km)
Ceiling: at least 12,000 feet AGL
Clouds: sky clear below 12,000 feet AGL
Present Weather: automated observation with no human augmentation;
there may or may not be significant weather present at this time
KZPH 281515Z AUTO 16010KT 10SM CLR 31/21 A3009 RMK AO2 T03060212